<?xml version="1.0" encoding="UTF-8" standalone="no" ?>
<gpx xmlns="http://www.topografix.com/GPX/1/1" xmlns:xsi="http://www.w3.org/2001/XMLSchema-instance" xsi:schemaLocation="http://www.topografix.com/GPX/1/1 http://www.topografix.com/GPX/1/1/gpx.xsd" version="1.1" creator="VisuGPX - https://www.visugpx.com">
  <metadata>
    <name>Vtt ds l\'ain</name>
    <desc><![CDATA[Tour tres sympa ds la campagne de Fareins (01)]]></desc>
  </metadata>
  <trk>
    <name><![CDATA[VttGab]]></name>
    <trkseg>
      <trkpt lat="46.01487" lon="4.75683">
        <ele>198</ele>
        <time>2012-04-09T07:42:28Z</time>
      </trkpt>
      <trkpt lat="46.01501" lon="4.7565">
        <ele>198</ele>
        <time>2012-04-09T07:42:41Z</time>
      </trkpt>
      <trkpt lat="46.01483" lon="4.75607">
        <ele>189</ele>
        <time>2012-04-09T07:42:51Z</time>
      </trkpt>
      <trkpt lat="46.01458" lon="4.75617">
        <ele>188</ele>
        <time>2012-04-09T07:43:01Z</time>
      </trkpt>
      <trkpt lat="46.01447" lon="4.75637">
        <ele>187</ele>
        <time>2012-04-09T07:43:11Z</time>
      </trkpt>
      <trkpt lat="46.01462" lon="4.75665">
        <ele>187</ele>
        <time>2012-04-09T07:43:21Z</time>
      </trkpt>
      <trkpt lat="46.01481" lon="4.75696">
        <ele>187</ele>
        <time>2012-04-09T07:43:31Z</time>
      </trkpt>
      <trkpt lat="46.01503" lon="4.75724">
        <ele>187</ele>
        <time>2012-04-09T07:43:41Z</time>
      </trkpt>
      <trkpt lat="46.01524" lon="4.75746">
        <ele>188</ele>
        <time>2012-04-09T07:43:51Z</time>
      </trkpt>
      <trkpt lat="46.01547" lon="4.75774">
        <ele>189</ele>
        <time>2012-04-09T07:44:01Z</time>
      </trkpt>
      <trkpt lat="46.01569" lon="4.75805">
        <ele>189</ele>
        <time>2012-04-09T07:44:11Z</time>
      </trkpt>
      <trkpt lat="46.01585" lon="4.75842">
        <ele>190</ele>
        <time>2012-04-09T07:44:21Z</time>
      </trkpt>
      <trkpt lat="46.01598" lon="4.75881">
        <ele>191</ele>
        <time>2012-04-09T07:44:31Z</time>
      </trkpt>
      <trkpt lat="46.01613" lon="4.75918">
        <ele>191</ele>
        <time>2012-04-09T07:44:41Z</time>
      </trkpt>
      <trkpt lat="46.01627" lon="4.75952">
        <ele>191</ele>
        <time>2012-04-09T07:44:51Z</time>
      </trkpt>
      <trkpt lat="46.01642" lon="4.75985">
        <ele>191</ele>
        <time>2012-04-09T07:45:01Z</time>
      </trkpt>
      <trkpt lat="46.01661" lon="4.76015">
        <ele>191</ele>
        <time>2012-04-09T07:45:11Z</time>
      </trkpt>
      <trkpt lat="46.01682" lon="4.76043">
        <ele>191</ele>
        <time>2012-04-09T07:45:21Z</time>
      </trkpt>
      <trkpt lat="46.01702" lon="4.76067">
        <ele>191</ele>
        <time>2012-04-09T07:45:31Z</time>
      </trkpt>
      <trkpt lat="46.01721" lon="4.76094">
        <ele>191</ele>
        <time>2012-04-09T07:45:41Z</time>
      </trkpt>
      <trkpt lat="46.01732" lon="4.76123">
        <ele>191</ele>
        <time>2012-04-09T07:45:51Z</time>
      </trkpt>
      <trkpt lat="46.01705" lon="4.76123">
        <ele>191</ele>
        <time>2012-04-09T07:46:01Z</time>
      </trkpt>
      <trkpt lat="46.01668" lon="4.76121">
        <ele>191</ele>
        <time>2012-04-09T07:46:12Z</time>
      </trkpt>
      <trkpt lat="46.01634" lon="4.76117">
        <ele>191</ele>
        <time>2012-04-09T07:46:22Z</time>
      </trkpt>
      <trkpt lat="46.01599" lon="4.76112">
        <ele>191</ele>
        <time>2012-04-09T07:46:32Z</time>
      </trkpt>
      <trkpt lat="46.01565" lon="4.76106">
        <ele>192</ele>
        <time>2012-04-09T07:46:42Z</time>
      </trkpt>
      <trkpt lat="46.0153" lon="4.76091">
        <ele>193</ele>
        <time>2012-04-09T07:46:52Z</time>
      </trkpt>
      <trkpt lat="46.01493" lon="4.76083">
        <ele>193</ele>
        <time>2012-04-09T07:47:02Z</time>
      </trkpt>
      <trkpt lat="46.01456" lon="4.76073">
        <ele>193</ele>
        <time>2012-04-09T07:47:12Z</time>
      </trkpt>
      <trkpt lat="46.0142" lon="4.76055">
        <ele>194</ele>
        <time>2012-04-09T07:47:22Z</time>
      </trkpt>
      <trkpt lat="46.01386" lon="4.76042">
        <ele>195</ele>
        <time>2012-04-09T07:47:32Z</time>
      </trkpt>
      <trkpt lat="46.01351" lon="4.76047">
        <ele>196</ele>
        <time>2012-04-09T07:47:42Z</time>
      </trkpt>
      <trkpt lat="46.01319" lon="4.76057">
        <ele>196</ele>
        <time>2012-04-09T07:47:52Z</time>
      </trkpt>
      <trkpt lat="46.01284" lon="4.76068">
        <ele>196</ele>
        <time>2012-04-09T07:48:02Z</time>
      </trkpt>
      <trkpt lat="46.01249" lon="4.76073">
        <ele>196</ele>
        <time>2012-04-09T07:48:12Z</time>
      </trkpt>
      <trkpt lat="46.01214" lon="4.76069">
        <ele>196</ele>
        <time>2012-04-09T07:48:22Z</time>
      </trkpt>
      <trkpt lat="46.01181" lon="4.7606">
        <ele>197</ele>
        <time>2012-04-09T07:48:32Z</time>
      </trkpt>
      <trkpt lat="46.01147" lon="4.76056">
        <ele>203</ele>
        <time>2012-04-09T07:48:43Z</time>
      </trkpt>
      <trkpt lat="46.01109" lon="4.76062">
        <ele>206</ele>
        <time>2012-04-09T07:48:53Z</time>
      </trkpt>
      <trkpt lat="46.0107" lon="4.76069">
        <ele>206</ele>
        <time>2012-04-09T07:49:04Z</time>
      </trkpt>
      <trkpt lat="46.01036" lon="4.76072">
        <ele>206</ele>
        <time>2012-04-09T07:49:14Z</time>
      </trkpt>
      <trkpt lat="46.00999" lon="4.76075">
        <ele>206</ele>
        <time>2012-04-09T07:49:25Z</time>
      </trkpt>
      <trkpt lat="46.00965" lon="4.76079">
        <ele>206</ele>
        <time>2012-04-09T07:49:35Z</time>
      </trkpt>
      <trkpt lat="46.0093" lon="4.76086">
        <ele>206</ele>
        <time>2012-04-09T07:49:45Z</time>
      </trkpt>
      <trkpt lat="46.00899" lon="4.76093">
        <ele>206</ele>
        <time>2012-04-09T07:49:55Z</time>
      </trkpt>
      <trkpt lat="46.00867" lon="4.761">
        <ele>206</ele>
        <time>2012-04-09T07:50:05Z</time>
      </trkpt>
      <trkpt lat="46.00835" lon="4.76106">
        <ele>206</ele>
        <time>2012-04-09T07:50:15Z</time>
      </trkpt>
      <trkpt lat="46.00802" lon="4.76108">
        <ele>206</ele>
        <time>2012-04-09T07:50:25Z</time>
      </trkpt>
      <trkpt lat="46.0077" lon="4.7611">
        <ele>208</ele>
        <time>2012-04-09T07:50:35Z</time>
      </trkpt>
      <trkpt lat="46.0074" lon="4.76115">
        <ele>211</ele>
        <time>2012-04-09T07:50:45Z</time>
      </trkpt>
      <trkpt lat="46.00704" lon="4.76117">
        <ele>215</ele>
        <time>2012-04-09T07:50:56Z</time>
      </trkpt>
      <trkpt lat="46.0067" lon="4.76123">
        <ele>218</ele>
        <time>2012-04-09T07:51:07Z</time>
      </trkpt>
      <trkpt lat="46.00653" lon="4.7614">
        <ele>220</ele>
        <time>2012-04-09T07:51:17Z</time>
      </trkpt>
      <trkpt lat="46.00668" lon="4.76163">
        <ele>221</ele>
        <time>2012-04-09T07:51:29Z</time>
      </trkpt>
      <trkpt lat="46.00682" lon="4.76179">
        <ele>221</ele>
        <time>2012-04-09T07:51:39Z</time>
      </trkpt>
      <trkpt lat="46.007" lon="4.76205">
        <ele>223</ele>
        <time>2012-04-09T07:51:49Z</time>
      </trkpt>
      <trkpt lat="46.00724" lon="4.76241">
        <ele>224</ele>
        <time>2012-04-09T07:52:00Z</time>
      </trkpt>
      <trkpt lat="46.00748" lon="4.76279">
        <ele>224</ele>
        <time>2012-04-09T07:52:10Z</time>
      </trkpt>
      <trkpt lat="46.00776" lon="4.76321">
        <ele>224</ele>
        <time>2012-04-09T07:52:20Z</time>
      </trkpt>
      <trkpt lat="46.00805" lon="4.76363">
        <ele>222</ele>
        <time>2012-04-09T07:52:30Z</time>
      </trkpt>
      <trkpt lat="46.00832" lon="4.76407">
        <ele>222</ele>
        <time>2012-04-09T07:52:40Z</time>
      </trkpt>
      <trkpt lat="46.00861" lon="4.76445">
        <ele>221</ele>
        <time>2012-04-09T07:52:50Z</time>
      </trkpt>
      <trkpt lat="46.00891" lon="4.76475">
        <ele>221</ele>
        <time>2012-04-09T07:53:00Z</time>
      </trkpt>
      <trkpt lat="46.00921" lon="4.76503">
        <ele>221</ele>
        <time>2012-04-09T07:53:10Z</time>
      </trkpt>
      <trkpt lat="46.00958" lon="4.76532">
        <ele>221</ele>
        <time>2012-04-09T07:53:21Z</time>
      </trkpt>
      <trkpt lat="46.00997" lon="4.76574">
        <ele>219</ele>
        <time>2012-04-09T07:53:31Z</time>
      </trkpt>
      <trkpt lat="46.01036" lon="4.76629">
        <ele>215</ele>
        <time>2012-04-09T07:53:41Z</time>
      </trkpt>
      <trkpt lat="46.0107" lon="4.76689">
        <ele>214</ele>
        <time>2012-04-09T07:53:51Z</time>
      </trkpt>
      <trkpt lat="46.01098" lon="4.76735">
        <ele>214</ele>
        <time>2012-04-09T07:54:01Z</time>
      </trkpt>
      <trkpt lat="46.01131" lon="4.76782">
        <ele>213</ele>
        <time>2012-04-09T07:54:11Z</time>
      </trkpt>
      <trkpt lat="46.01171" lon="4.76828">
        <ele>213</ele>
        <time>2012-04-09T07:54:21Z</time>
      </trkpt>
      <trkpt lat="46.01203" lon="4.76881">
        <ele>213</ele>
        <time>2012-04-09T07:54:31Z</time>
      </trkpt>
      <trkpt lat="46.01217" lon="4.76943">
        <ele>213</ele>
        <time>2012-04-09T07:54:41Z</time>
      </trkpt>
      <trkpt lat="46.01228" lon="4.76997">
        <ele>213</ele>
        <time>2012-04-09T07:54:51Z</time>
      </trkpt>
      <trkpt lat="46.01239" lon="4.7705">
        <ele>213</ele>
        <time>2012-04-09T07:55:01Z</time>
      </trkpt>
      <trkpt lat="46.0125" lon="4.77102">
        <ele>213</ele>
        <time>2012-04-09T07:55:11Z</time>
      </trkpt>
      <trkpt lat="46.01263" lon="4.77151">
        <ele>213</ele>
        <time>2012-04-09T07:55:21Z</time>
      </trkpt>
      <trkpt lat="46.0128" lon="4.77199">
        <ele>213</ele>
        <time>2012-04-09T07:55:31Z</time>
      </trkpt>
      <trkpt lat="46.01299" lon="4.77243">
        <ele>213</ele>
        <time>2012-04-09T07:55:41Z</time>
      </trkpt>
      <trkpt lat="46.01319" lon="4.77287">
        <ele>213</ele>
        <time>2012-04-09T07:55:51Z</time>
      </trkpt>
      <trkpt lat="46.01332" lon="4.77335">
        <ele>213</ele>
        <time>2012-04-09T07:56:01Z</time>
      </trkpt>
      <trkpt lat="46.01338" lon="4.77388">
        <ele>213</ele>
        <time>2012-04-09T07:56:11Z</time>
      </trkpt>
      <trkpt lat="46.01352" lon="4.77443">
        <ele>213</ele>
        <time>2012-04-09T07:56:22Z</time>
      </trkpt>
      <trkpt lat="46.01365" lon="4.77488">
        <ele>213</ele>
        <time>2012-04-09T07:56:32Z</time>
      </trkpt>
      <trkpt lat="46.01379" lon="4.77529">
        <ele>213</ele>
        <time>2012-04-09T07:56:42Z</time>
      </trkpt>
      <trkpt lat="46.01393" lon="4.77556">
        <ele>213</ele>
        <time>2012-04-09T07:56:52Z</time>
      </trkpt>
      <trkpt lat="46.01416" lon="4.77589">
        <ele>213</ele>
        <time>2012-04-09T07:57:02Z</time>
      </trkpt>
      <trkpt lat="46.01446" lon="4.77625">
        <ele>213</ele>
        <time>2012-04-09T07:57:12Z</time>
      </trkpt>
      <trkpt lat="46.01476" lon="4.77668">
        <ele>213</ele>
        <time>2012-04-09T07:57:22Z</time>
      </trkpt>
      <trkpt lat="46.01512" lon="4.77717">
        <ele>213</ele>
        <time>2012-04-09T07:57:32Z</time>
      </trkpt>
      <trkpt lat="46.01547" lon="4.77766">
        <ele>213</ele>
        <time>2012-04-09T07:57:42Z</time>
      </trkpt>
      <trkpt lat="46.0158" lon="4.7781">
        <ele>213</ele>
        <time>2012-04-09T07:57:52Z</time>
      </trkpt>
      <trkpt lat="46.01602" lon="4.77858">
        <ele>213</ele>
        <time>2012-04-09T07:58:02Z</time>
      </trkpt>
      <trkpt lat="46.01625" lon="4.77905">
        <ele>213</ele>
        <time>2012-04-09T07:58:12Z</time>
      </trkpt>
      <trkpt lat="46.01651" lon="4.77951">
        <ele>213</ele>
        <time>2012-04-09T07:58:22Z</time>
      </trkpt>
      <trkpt lat="46.01683" lon="4.7799">
        <ele>213</ele>
        <time>2012-04-09T07:58:32Z</time>
      </trkpt>
      <trkpt lat="46.01714" lon="4.78026">
        <ele>212</ele>
        <time>2012-04-09T07:58:42Z</time>
      </trkpt>
      <trkpt lat="46.01741" lon="4.78063">
        <ele>212</ele>
        <time>2012-04-09T07:58:52Z</time>
      </trkpt>
      <trkpt lat="46.01768" lon="4.78104">
        <ele>212</ele>
        <time>2012-04-09T07:59:02Z</time>
      </trkpt>
      <trkpt lat="46.01797" lon="4.78141">
        <ele>212</ele>
        <time>2012-04-09T07:59:12Z</time>
      </trkpt>
      <trkpt lat="46.0183" lon="4.78166">
        <ele>212</ele>
        <time>2012-04-09T07:59:22Z</time>
      </trkpt>
      <trkpt lat="46.01843" lon="4.78207">
        <ele>212</ele>
        <time>2012-04-09T07:59:32Z</time>
      </trkpt>
      <trkpt lat="46.01861" lon="4.78247">
        <ele>212</ele>
        <time>2012-04-09T07:59:42Z</time>
      </trkpt>
      <trkpt lat="46.01886" lon="4.78277">
        <ele>214</ele>
        <time>2012-04-09T07:59:52Z</time>
      </trkpt>
      <trkpt lat="46.01912" lon="4.78294">
        <ele>217</ele>
        <time>2012-04-09T08:00:02Z</time>
      </trkpt>
      <trkpt lat="46.01939" lon="4.78309">
        <ele>220</ele>
        <time>2012-04-09T08:00:12Z</time>
      </trkpt>
      <trkpt lat="46.01965" lon="4.78325">
        <ele>223</ele>
        <time>2012-04-09T08:00:22Z</time>
      </trkpt>
      <trkpt lat="46.01993" lon="4.78341">
        <ele>224</ele>
        <time>2012-04-09T08:00:32Z</time>
      </trkpt>
      <trkpt lat="46.02018" lon="4.78363">
        <ele>224</ele>
        <time>2012-04-09T08:00:42Z</time>
      </trkpt>
      <trkpt lat="46.02042" lon="4.7839">
        <ele>226</ele>
        <time>2012-04-09T08:00:52Z</time>
      </trkpt>
      <trkpt lat="46.02068" lon="4.78411">
        <ele>226</ele>
        <time>2012-04-09T08:01:02Z</time>
      </trkpt>
      <trkpt lat="46.021" lon="4.7843">
        <ele>226</ele>
        <time>2012-04-09T08:01:12Z</time>
      </trkpt>
      <trkpt lat="46.02134" lon="4.78446">
        <ele>227</ele>
        <time>2012-04-09T08:01:22Z</time>
      </trkpt>
      <trkpt lat="46.02167" lon="4.78464">
        <ele>227</ele>
        <time>2012-04-09T08:01:32Z</time>
      </trkpt>
      <trkpt lat="46.02199" lon="4.78482">
        <ele>227</ele>
        <time>2012-04-09T08:01:42Z</time>
      </trkpt>
      <trkpt lat="46.02213" lon="4.78527">
        <ele>225</ele>
        <time>2012-04-09T08:01:52Z</time>
      </trkpt>
      <trkpt lat="46.02224" lon="4.78565">
        <ele>225</ele>
        <time>2012-04-09T08:02:02Z</time>
      </trkpt>
      <trkpt lat="46.02234" lon="4.78609">
        <ele>225</ele>
        <time>2012-04-09T08:02:12Z</time>
      </trkpt>
      <trkpt lat="46.02245" lon="4.78652">
        <ele>227</ele>
        <time>2012-04-09T08:02:22Z</time>
      </trkpt>
      <trkpt lat="46.0226" lon="4.78691">
        <ele>228</ele>
        <time>2012-04-09T08:02:32Z</time>
      </trkpt>
      <trkpt lat="46.02273" lon="4.78728">
        <ele>231</ele>
        <time>2012-04-09T08:02:42Z</time>
      </trkpt>
      <trkpt lat="46.02281" lon="4.78767">
        <ele>232</ele>
        <time>2012-04-09T08:02:52Z</time>
      </trkpt>
      <trkpt lat="46.02287" lon="4.78809">
        <ele>232</ele>
        <time>2012-04-09T08:03:02Z</time>
      </trkpt>
      <trkpt lat="46.02295" lon="4.7886">
        <ele>232</ele>
        <time>2012-04-09T08:03:12Z</time>
      </trkpt>
      <trkpt lat="46.02297" lon="4.78918">
        <ele>232</ele>
        <time>2012-04-09T08:03:22Z</time>
      </trkpt>
      <trkpt lat="46.02297" lon="4.78979">
        <ele>232</ele>
        <time>2012-04-09T08:03:32Z</time>
      </trkpt>
      <trkpt lat="46.02297" lon="4.79035">
        <ele>232</ele>
        <time>2012-04-09T08:03:42Z</time>
      </trkpt>
      <trkpt lat="46.02302" lon="4.79083">
        <ele>232</ele>
        <time>2012-04-09T08:03:52Z</time>
      </trkpt>
      <trkpt lat="46.0231" lon="4.79147">
        <ele>231</ele>
        <time>2012-04-09T08:04:02Z</time>
      </trkpt>
      <trkpt lat="46.02322" lon="4.79207">
        <ele>231</ele>
        <time>2012-04-09T08:04:12Z</time>
      </trkpt>
      <trkpt lat="46.02335" lon="4.79264">
        <ele>231</ele>
        <time>2012-04-09T08:04:22Z</time>
      </trkpt>
      <trkpt lat="46.0235" lon="4.79317">
        <ele>231</ele>
        <time>2012-04-09T08:04:32Z</time>
      </trkpt>
      <trkpt lat="46.0236" lon="4.79372">
        <ele>231</ele>
        <time>2012-04-09T08:04:42Z</time>
      </trkpt>
      <trkpt lat="46.02356" lon="4.79424">
        <ele>231</ele>
        <time>2012-04-09T08:04:52Z</time>
      </trkpt>
      <trkpt lat="46.02354" lon="4.79481">
        <ele>230</ele>
        <time>2012-04-09T08:05:02Z</time>
      </trkpt>
      <trkpt lat="46.02361" lon="4.79537">
        <ele>230</ele>
        <time>2012-04-09T08:05:12Z</time>
      </trkpt>
      <trkpt lat="46.02369" lon="4.79592">
        <ele>230</ele>
        <time>2012-04-09T08:05:22Z</time>
      </trkpt>
      <trkpt lat="46.02375" lon="4.79643">
        <ele>229</ele>
        <time>2012-04-09T08:05:32Z</time>
      </trkpt>
      <trkpt lat="46.02379" lon="4.79646">
        <ele>229</ele>
        <time>2012-04-09T08:05:42Z</time>
      </trkpt>
      <trkpt lat="46.02404" lon="4.79641">
        <ele>229</ele>
        <time>2012-04-09T08:05:52Z</time>
      </trkpt>
      <trkpt lat="46.02438" lon="4.79635">
        <ele>229</ele>
        <time>2012-04-09T08:06:02Z</time>
      </trkpt>
      <trkpt lat="46.02455" lon="4.79677">
        <ele>229</ele>
        <time>2012-04-09T08:06:12Z</time>
      </trkpt>
      <trkpt lat="46.02459" lon="4.79738">
        <ele>229</ele>
        <time>2012-04-09T08:06:22Z</time>
      </trkpt>
      <trkpt lat="46.02462" lon="4.7979">
        <ele>229</ele>
        <time>2012-04-09T08:06:32Z</time>
      </trkpt>
      <trkpt lat="46.02465" lon="4.79842">
        <ele>229</ele>
        <time>2012-04-09T08:06:42Z</time>
      </trkpt>
      <trkpt lat="46.02481" lon="4.79887">
        <ele>229</ele>
        <time>2012-04-09T08:06:52Z</time>
      </trkpt>
      <trkpt lat="46.02507" lon="4.79921">
        <ele>229</ele>
        <time>2012-04-09T08:07:02Z</time>
      </trkpt>
      <trkpt lat="46.02534" lon="4.79957">
        <ele>229</ele>
        <time>2012-04-09T08:07:12Z</time>
      </trkpt>
      <trkpt lat="46.02561" lon="4.79991">
        <ele>230</ele>
        <time>2012-04-09T08:07:22Z</time>
      </trkpt>
      <trkpt lat="46.02595" lon="4.79996">
        <ele>232</ele>
        <time>2012-04-09T08:07:32Z</time>
      </trkpt>
      <trkpt lat="46.02636" lon="4.80004">
        <ele>232</ele>
        <time>2012-04-09T08:07:42Z</time>
      </trkpt>
      <trkpt lat="46.02671" lon="4.80038">
        <ele>232</ele>
        <time>2012-04-09T08:07:52Z</time>
      </trkpt>
      <trkpt lat="46.02704" lon="4.80074">
        <ele>232</ele>
        <time>2012-04-09T08:08:02Z</time>
      </trkpt>
      <trkpt lat="46.02733" lon="4.8011">
        <ele>232</ele>
        <time>2012-04-09T08:08:12Z</time>
      </trkpt>
      <trkpt lat="46.02757" lon="4.80142">
        <ele>232</ele>
        <time>2012-04-09T08:08:22Z</time>
      </trkpt>
      <trkpt lat="46.02784" lon="4.80179">
        <ele>232</ele>
        <time>2012-04-09T08:08:32Z</time>
      </trkpt>
      <trkpt lat="46.02813" lon="4.80217">
        <ele>232</ele>
        <time>2012-04-09T08:08:42Z</time>
      </trkpt>
      <trkpt lat="46.02841" lon="4.80248">
        <ele>232</ele>
        <time>2012-04-09T08:08:52Z</time>
      </trkpt>
      <trkpt lat="46.02855" lon="4.80301">
        <ele>232</ele>
        <time>2012-04-09T08:09:02Z</time>
      </trkpt>
      <trkpt lat="46.02858" lon="4.8037">
        <ele>232</ele>
        <time>2012-04-09T08:09:12Z</time>
      </trkpt>
      <trkpt lat="46.02862" lon="4.80462">
        <ele>230</ele>
        <time>2012-04-09T08:09:22Z</time>
      </trkpt>
      <trkpt lat="46.02862" lon="4.80551">
        <ele>229</ele>
        <time>2012-04-09T08:09:32Z</time>
      </trkpt>
      <trkpt lat="46.02851" lon="4.80618">
        <ele>228</ele>
        <time>2012-04-09T08:09:42Z</time>
      </trkpt>
      <trkpt lat="46.02839" lon="4.80686">
        <ele>227</ele>
        <time>2012-04-09T08:09:52Z</time>
      </trkpt>
      <trkpt lat="46.02826" lon="4.80745">
        <ele>227</ele>
        <time>2012-04-09T08:10:02Z</time>
      </trkpt>
      <trkpt lat="46.02813" lon="4.80796">
        <ele>227</ele>
        <time>2012-04-09T08:10:12Z</time>
      </trkpt>
      <trkpt lat="46.02793" lon="4.80837">
        <ele>227</ele>
        <time>2012-04-09T08:10:22Z</time>
      </trkpt>
      <trkpt lat="46.02771" lon="4.80873">
        <ele>230</ele>
        <time>2012-04-09T08:10:32Z</time>
      </trkpt>
      <trkpt lat="46.02749" lon="4.80908">
        <ele>233</ele>
        <time>2012-04-09T08:10:42Z</time>
      </trkpt>
      <trkpt lat="46.02727" lon="4.80949">
        <ele>237</ele>
        <time>2012-04-09T08:10:52Z</time>
      </trkpt>
      <trkpt lat="46.02704" lon="4.80992">
        <ele>238</ele>
        <time>2012-04-09T08:11:02Z</time>
      </trkpt>
      <trkpt lat="46.02687" lon="4.8104">
        <ele>238</ele>
        <time>2012-04-09T08:11:12Z</time>
      </trkpt>
      <trkpt lat="46.02672" lon="4.81093">
        <ele>238</ele>
        <time>2012-04-09T08:11:22Z</time>
      </trkpt>
      <trkpt lat="46.02644" lon="4.81135">
        <ele>238</ele>
        <time>2012-04-09T08:11:32Z</time>
      </trkpt>
      <trkpt lat="46.02606" lon="4.81159">
        <ele>238</ele>
        <time>2012-04-09T08:11:42Z</time>
      </trkpt>
      <trkpt lat="46.02571" lon="4.81188">
        <ele>238</ele>
        <time>2012-04-09T08:11:52Z</time>
      </trkpt>
      <trkpt lat="46.02542" lon="4.81227">
        <ele>239</ele>
        <time>2012-04-09T08:12:02Z</time>
      </trkpt>
      <trkpt lat="46.02523" lon="4.81275">
        <ele>241</ele>
        <time>2012-04-09T08:12:12Z</time>
      </trkpt>
      <trkpt lat="46.02506" lon="4.81324">
        <ele>242</ele>
        <time>2012-04-09T08:12:22Z</time>
      </trkpt>
      <trkpt lat="46.02486" lon="4.81368">
        <ele>243</ele>
        <time>2012-04-09T08:12:32Z</time>
      </trkpt>
      <trkpt lat="46.02464" lon="4.81414">
        <ele>244</ele>
        <time>2012-04-09T08:12:42Z</time>
      </trkpt>
      <trkpt lat="46.02441" lon="4.81458">
        <ele>244</ele>
        <time>2012-04-09T08:12:52Z</time>
      </trkpt>
      <trkpt lat="46.02419" lon="4.81499">
        <ele>244</ele>
        <time>2012-04-09T08:13:02Z</time>
      </trkpt>
      <trkpt lat="46.02394" lon="4.81542">
        <ele>244</ele>
        <time>2012-04-09T08:13:12Z</time>
      </trkpt>
      <trkpt lat="46.02368" lon="4.8159">
        <ele>244</ele>
        <time>2012-04-09T08:13:22Z</time>
      </trkpt>
      <trkpt lat="46.0234" lon="4.81638">
        <ele>244</ele>
        <time>2012-04-09T08:13:32Z</time>
      </trkpt>
      <trkpt lat="46.02313" lon="4.81685">
        <ele>244</ele>
        <time>2012-04-09T08:13:42Z</time>
      </trkpt>
      <trkpt lat="46.02288" lon="4.81728">
        <ele>244</ele>
        <time>2012-04-09T08:13:52Z</time>
      </trkpt>
      <trkpt lat="46.02249" lon="4.81721">
        <ele>244</ele>
        <time>2012-04-09T08:14:02Z</time>
      </trkpt>
      <trkpt lat="46.02208" lon="4.81715">
        <ele>244</ele>
        <time>2012-04-09T08:14:12Z</time>
      </trkpt>
      <trkpt lat="46.02167" lon="4.81708">
        <ele>244</ele>
        <time>2012-04-09T08:14:22Z</time>
      </trkpt>
      <trkpt lat="46.02124" lon="4.817">
        <ele>244</ele>
        <time>2012-04-09T08:14:32Z</time>
      </trkpt>
      <trkpt lat="46.02081" lon="4.81691">
        <ele>244</ele>
        <time>2012-04-09T08:14:42Z</time>
      </trkpt>
      <trkpt lat="46.02041" lon="4.81686">
        <ele>244</ele>
        <time>2012-04-09T08:14:52Z</time>
      </trkpt>
      <trkpt lat="46.02002" lon="4.81691">
        <ele>244</ele>
        <time>2012-04-09T08:15:02Z</time>
      </trkpt>
      <trkpt lat="46.01964" lon="4.81698">
        <ele>244</ele>
        <time>2012-04-09T08:15:12Z</time>
      </trkpt>
      <trkpt lat="46.01926" lon="4.81706">
        <ele>244</ele>
        <time>2012-04-09T08:15:22Z</time>
      </trkpt>
      <trkpt lat="46.01889" lon="4.81714">
        <ele>244</ele>
        <time>2012-04-09T08:15:32Z</time>
      </trkpt>
      <trkpt lat="46.01852" lon="4.8172">
        <ele>244</ele>
        <time>2012-04-09T08:15:42Z</time>
      </trkpt>
      <trkpt lat="46.01814" lon="4.81726">
        <ele>245</ele>
        <time>2012-04-09T08:15:52Z</time>
      </trkpt>
      <trkpt lat="46.01777" lon="4.81733">
        <ele>247</ele>
        <time>2012-04-09T08:16:02Z</time>
      </trkpt>
      <trkpt lat="46.01741" lon="4.81739">
        <ele>248</ele>
        <time>2012-04-09T08:16:12Z</time>
      </trkpt>
      <trkpt lat="46.01701" lon="4.81746">
        <ele>248</ele>
        <time>2012-04-09T08:16:22Z</time>
      </trkpt>
      <trkpt lat="46.01648" lon="4.81755">
        <ele>248</ele>
        <time>2012-04-09T08:16:32Z</time>
      </trkpt>
      <trkpt lat="46.01591" lon="4.81765">
        <ele>248</ele>
        <time>2012-04-09T08:16:42Z</time>
      </trkpt>
      <trkpt lat="46.01539" lon="4.81773">
        <ele>248</ele>
        <time>2012-04-09T08:16:52Z</time>
      </trkpt>
      <trkpt lat="46.0149" lon="4.81782">
        <ele>248</ele>
        <time>2012-04-09T08:17:02Z</time>
      </trkpt>
      <trkpt lat="46.01447" lon="4.81789">
        <ele>248</ele>
        <time>2012-04-09T08:17:12Z</time>
      </trkpt>
      <trkpt lat="46.01406" lon="4.81797">
        <ele>248</ele>
        <time>2012-04-09T08:17:22Z</time>
      </trkpt>
      <trkpt lat="46.01372" lon="4.81804">
        <ele>248</ele>
        <time>2012-04-09T08:17:32Z</time>
      </trkpt>
      <trkpt lat="46.01343" lon="4.81809">
        <ele>248</ele>
        <time>2012-04-09T08:17:42Z</time>
      </trkpt>
      <trkpt lat="46.01316" lon="4.81771">
        <ele>248</ele>
        <time>2012-04-09T08:17:52Z</time>
      </trkpt>
      <trkpt lat="46.01298" lon="4.81706">
        <ele>247</ele>
        <time>2012-04-09T08:18:02Z</time>
      </trkpt>
      <trkpt lat="46.01287" lon="4.81661">
        <ele>247</ele>
        <time>2012-04-09T08:18:12Z</time>
      </trkpt>
      <trkpt lat="46.01278" lon="4.81622">
        <ele>247</ele>
        <time>2012-04-09T08:18:22Z</time>
      </trkpt>
      <trkpt lat="46.01265" lon="4.8157">
        <ele>247</ele>
        <time>2012-04-09T08:18:32Z</time>
      </trkpt>
      <trkpt lat="46.01258" lon="4.81517">
        <ele>247</ele>
        <time>2012-04-09T08:18:42Z</time>
      </trkpt>
      <trkpt lat="46.01253" lon="4.81487">
        <ele>247</ele>
        <time>2012-04-09T08:18:53Z</time>
      </trkpt>
      <trkpt lat="46.0125" lon="4.81468">
        <ele>247</ele>
        <time>2012-04-09T08:19:03Z</time>
      </trkpt>
      <trkpt lat="46.01245" lon="4.81427">
        <ele>246</ele>
        <time>2012-04-09T08:19:13Z</time>
      </trkpt>
      <trkpt lat="46.01238" lon="4.81381">
        <ele>244</ele>
        <time>2012-04-09T08:19:23Z</time>
      </trkpt>
      <trkpt lat="46.01232" lon="4.81341">
        <ele>244</ele>
        <time>2012-04-09T08:19:33Z</time>
      </trkpt>
      <trkpt lat="46.01224" lon="4.81304">
        <ele>244</ele>
        <time>2012-04-09T08:19:43Z</time>
      </trkpt>
      <trkpt lat="46.01215" lon="4.81265">
        <ele>244</ele>
        <time>2012-04-09T08:19:53Z</time>
      </trkpt>
      <trkpt lat="46.01205" lon="4.81224">
        <ele>244</ele>
        <time>2012-04-09T08:20:03Z</time>
      </trkpt>
      <trkpt lat="46.01194" lon="4.81182">
        <ele>244</ele>
        <time>2012-04-09T08:20:13Z</time>
      </trkpt>
      <trkpt lat="46.01183" lon="4.81142">
        <ele>244</ele>
        <time>2012-04-09T08:20:23Z</time>
      </trkpt>
      <trkpt lat="46.01171" lon="4.811">
        <ele>245</ele>
        <time>2012-04-09T08:20:33Z</time>
      </trkpt>
      <trkpt lat="46.01157" lon="4.81053">
        <ele>245</ele>
        <time>2012-04-09T08:20:43Z</time>
      </trkpt>
      <trkpt lat="46.01137" lon="4.81009">
        <ele>245</ele>
        <time>2012-04-09T08:20:53Z</time>
      </trkpt>
      <trkpt lat="46.01115" lon="4.80967">
        <ele>245</ele>
        <time>2012-04-09T08:21:03Z</time>
      </trkpt>
      <trkpt lat="46.01091" lon="4.80925">
        <ele>245</ele>
        <time>2012-04-09T08:21:13Z</time>
      </trkpt>
      <trkpt lat="46.01068" lon="4.80882">
        <ele>245</ele>
        <time>2012-04-09T08:21:23Z</time>
      </trkpt>
      <trkpt lat="46.01044" lon="4.80842">
        <ele>245</ele>
        <time>2012-04-09T08:21:33Z</time>
      </trkpt>
      <trkpt lat="46.01023" lon="4.80804">
        <ele>245</ele>
        <time>2012-04-09T08:21:43Z</time>
      </trkpt>
      <trkpt lat="46.01003" lon="4.80768">
        <ele>245</ele>
        <time>2012-04-09T08:21:53Z</time>
      </trkpt>
      <trkpt lat="46.00983" lon="4.80728">
        <ele>246</ele>
        <time>2012-04-09T08:22:03Z</time>
      </trkpt>
      <trkpt lat="46.00967" lon="4.80697">
        <ele>247</ele>
        <time>2012-04-09T08:22:13Z</time>
      </trkpt>
      <trkpt lat="46.00954" lon="4.80658">
        <ele>248</ele>
        <time>2012-04-09T08:22:23Z</time>
      </trkpt>
      <trkpt lat="46.00943" lon="4.80615">
        <ele>248</ele>
        <time>2012-04-09T08:22:33Z</time>
      </trkpt>
      <trkpt lat="46.00932" lon="4.80571">
        <ele>248</ele>
        <time>2012-04-09T08:22:43Z</time>
      </trkpt>
      <trkpt lat="46.0092" lon="4.80527">
        <ele>248</ele>
        <time>2012-04-09T08:22:53Z</time>
      </trkpt>
      <trkpt lat="46.00908" lon="4.8048">
        <ele>248</ele>
        <time>2012-04-09T08:23:03Z</time>
      </trkpt>
      <trkpt lat="46.00897" lon="4.80433">
        <ele>248</ele>
        <time>2012-04-09T08:23:13Z</time>
      </trkpt>
      <trkpt lat="46.00886" lon="4.80393">
        <ele>248</ele>
        <time>2012-04-09T08:23:23Z</time>
      </trkpt>
      <trkpt lat="46.00873" lon="4.80347">
        <ele>248</ele>
        <time>2012-04-09T08:23:33Z</time>
      </trkpt>
      <trkpt lat="46.00856" lon="4.80304">
        <ele>248</ele>
        <time>2012-04-09T08:23:43Z</time>
      </trkpt>
      <trkpt lat="46.00833" lon="4.80272">
        <ele>248</ele>
        <time>2012-04-09T08:23:53Z</time>
      </trkpt>
      <trkpt lat="46.00807" lon="4.8024">
        <ele>248</ele>
        <time>2012-04-09T08:24:03Z</time>
      </trkpt>
      <trkpt lat="46.00782" lon="4.80207">
        <ele>248</ele>
        <time>2012-04-09T08:24:13Z</time>
      </trkpt>
      <trkpt lat="46.00753" lon="4.80181">
        <ele>248</ele>
        <time>2012-04-09T08:24:23Z</time>
      </trkpt>
      <trkpt lat="46.00726" lon="4.80165">
        <ele>250</ele>
        <time>2012-04-09T08:24:33Z</time>
      </trkpt>
      <trkpt lat="46.00716" lon="4.80162">
        <ele>250</ele>
        <time>2012-04-09T08:24:43Z</time>
      </trkpt>
      <trkpt lat="46.00693" lon="4.80154">
        <ele>251</ele>
        <time>2012-04-09T08:24:53Z</time>
      </trkpt>
      <trkpt lat="46.00668" lon="4.80144">
        <ele>251</ele>
        <time>2012-04-09T08:25:03Z</time>
      </trkpt>
      <trkpt lat="46.00637" lon="4.8013">
        <ele>251</ele>
        <time>2012-04-09T08:25:13Z</time>
      </trkpt>
      <trkpt lat="46.00607" lon="4.80116">
        <ele>251</ele>
        <time>2012-04-09T08:25:23Z</time>
      </trkpt>
      <trkpt lat="46.00577" lon="4.80103">
        <ele>251</ele>
        <time>2012-04-09T08:25:33Z</time>
      </trkpt>
      <trkpt lat="46.00547" lon="4.80091">
        <ele>251</ele>
        <time>2012-04-09T08:25:43Z</time>
      </trkpt>
      <trkpt lat="46.00517" lon="4.80078">
        <ele>251</ele>
        <time>2012-04-09T08:25:53Z</time>
      </trkpt>
      <trkpt lat="46.0049" lon="4.80066">
        <ele>251</ele>
        <time>2012-04-09T08:26:03Z</time>
      </trkpt>
      <trkpt lat="46.00465" lon="4.80057">
        <ele>251</ele>
        <time>2012-04-09T08:26:13Z</time>
      </trkpt>
      <trkpt lat="46.0044" lon="4.80042">
        <ele>251</ele>
        <time>2012-04-09T08:26:23Z</time>
      </trkpt>
      <trkpt lat="46.00413" lon="4.80026">
        <ele>251</ele>
        <time>2012-04-09T08:26:33Z</time>
      </trkpt>
      <trkpt lat="46.00387" lon="4.80011">
        <ele>251</ele>
        <time>2012-04-09T08:26:43Z</time>
      </trkpt>
      <trkpt lat="46.00358" lon="4.79998">
        <ele>251</ele>
        <time>2012-04-09T08:26:53Z</time>
      </trkpt>
      <trkpt lat="46.00333" lon="4.79986">
        <ele>251</ele>
        <time>2012-04-09T08:27:03Z</time>
      </trkpt>
      <trkpt lat="46.00308" lon="4.79971">
        <ele>251</ele>
        <time>2012-04-09T08:27:13Z</time>
      </trkpt>
      <trkpt lat="46.00282" lon="4.79956">
        <ele>251</ele>
        <time>2012-04-09T08:27:23Z</time>
      </trkpt>
      <trkpt lat="46.00257" lon="4.79944">
        <ele>251</ele>
        <time>2012-04-09T08:27:33Z</time>
      </trkpt>
      <trkpt lat="46.00231" lon="4.79929">
        <ele>252</ele>
        <time>2012-04-09T08:27:43Z</time>
      </trkpt>
      <trkpt lat="46.00205" lon="4.79916">
        <ele>252</ele>
        <time>2012-04-09T08:27:53Z</time>
      </trkpt>
      <trkpt lat="46.00181" lon="4.79903">
        <ele>252</ele>
        <time>2012-04-09T08:28:03Z</time>
      </trkpt>
      <trkpt lat="46.00164" lon="4.79896">
        <ele>252</ele>
        <time>2012-04-09T08:28:13Z</time>
      </trkpt>
      <trkpt lat="46.00163" lon="4.79894">
        <ele>252</ele>
        <time>2012-04-09T08:28:14Z</time>
      </trkpt>
      <trkpt lat="46.00167" lon="4.79891">
        <ele>252</ele>
        <time>2012-04-09T08:28:31Z</time>
      </trkpt>
      <trkpt lat="46.00166" lon="4.79905">
        <ele>252</ele>
        <time>2012-04-09T08:28:41Z</time>
      </trkpt>
      <trkpt lat="46.00162" lon="4.79924">
        <ele>252</ele>
        <time>2012-04-09T08:28:51Z</time>
      </trkpt>
      <trkpt lat="46.00158" lon="4.79947">
        <ele>252</ele>
        <time>2012-04-09T08:29:01Z</time>
      </trkpt>
      <trkpt lat="46.00153" lon="4.7998">
        <ele>253</ele>
        <time>2012-04-09T08:29:11Z</time>
      </trkpt>
      <trkpt lat="46.00146" lon="4.80016">
        <ele>255</ele>
        <time>2012-04-09T08:29:21Z</time>
      </trkpt>
      <trkpt lat="46.00138" lon="4.80051">
        <ele>255</ele>
        <time>2012-04-09T08:29:31Z</time>
      </trkpt>
      <trkpt lat="46.00132" lon="4.80091">
        <ele>257</ele>
        <time>2012-04-09T08:29:41Z</time>
      </trkpt>
      <trkpt lat="46.00122" lon="4.80134">
        <ele>257</ele>
        <time>2012-04-09T08:29:51Z</time>
      </trkpt>
      <trkpt lat="46.00112" lon="4.8018">
        <ele>257</ele>
        <time>2012-04-09T08:30:01Z</time>
      </trkpt>
      <trkpt lat="46.00103" lon="4.80225">
        <ele>257</ele>
        <time>2012-04-09T08:30:11Z</time>
      </trkpt>
      <trkpt lat="46.00093" lon="4.80273">
        <ele>257</ele>
        <time>2012-04-09T08:30:21Z</time>
      </trkpt>
      <trkpt lat="46.0008" lon="4.80338">
        <ele>256</ele>
        <time>2012-04-09T08:30:31Z</time>
      </trkpt>
      <trkpt lat="46.00053" lon="4.80453">
        <ele>252</ele>
        <time>2012-04-09T08:30:41Z</time>
      </trkpt>
      <trkpt lat="46.00008" lon="4.80579">
        <ele>247</ele>
        <time>2012-04-09T08:30:51Z</time>
      </trkpt>
      <trkpt lat="45.99965" lon="4.80693">
        <ele>244</ele>
        <time>2012-04-09T08:31:01Z</time>
      </trkpt>
      <trkpt lat="45.99928" lon="4.80788">
        <ele>242</ele>
        <time>2012-04-09T08:31:11Z</time>
      </trkpt>
      <trkpt lat="45.99899" lon="4.80869">
        <ele>242</ele>
        <time>2012-04-09T08:31:21Z</time>
      </trkpt>
      <trkpt lat="45.99875" lon="4.80931">
        <ele>242</ele>
        <time>2012-04-09T08:31:31Z</time>
      </trkpt>
      <trkpt lat="45.99855" lon="4.80983">
        <ele>242</ele>
        <time>2012-04-09T08:31:41Z</time>
      </trkpt>
      <trkpt lat="45.99833" lon="4.81039">
        <ele>241</ele>
        <time>2012-04-09T08:31:51Z</time>
      </trkpt>
      <trkpt lat="45.99811" lon="4.81092">
        <ele>241</ele>
        <time>2012-04-09T08:32:01Z</time>
      </trkpt>
      <trkpt lat="45.99792" lon="4.81141">
        <ele>241</ele>
        <time>2012-04-09T08:32:11Z</time>
      </trkpt>
      <trkpt lat="45.99773" lon="4.8119">
        <ele>241</ele>
        <time>2012-04-09T08:32:21Z</time>
      </trkpt>
      <trkpt lat="45.99754" lon="4.81244">
        <ele>241</ele>
        <time>2012-04-09T08:32:31Z</time>
      </trkpt>
      <trkpt lat="45.99731" lon="4.81293">
        <ele>241</ele>
        <time>2012-04-09T08:32:41Z</time>
      </trkpt>
      <trkpt lat="45.997" lon="4.81336">
        <ele>241</ele>
        <time>2012-04-09T08:32:51Z</time>
      </trkpt>
      <trkpt lat="45.99668" lon="4.81372">
        <ele>241</ele>
        <time>2012-04-09T08:33:01Z</time>
      </trkpt>
      <trkpt lat="45.99631" lon="4.81401">
        <ele>241</ele>
        <time>2012-04-09T08:33:11Z</time>
      </trkpt>
      <trkpt lat="45.99604" lon="4.81441">
        <ele>241</ele>
        <time>2012-04-09T08:33:21Z</time>
      </trkpt>
      <trkpt lat="45.99583" lon="4.81485">
        <ele>241</ele>
        <time>2012-04-09T08:33:31Z</time>
      </trkpt>
      <trkpt lat="45.99561" lon="4.81525">
        <ele>241</ele>
        <time>2012-04-09T08:33:41Z</time>
      </trkpt>
      <trkpt lat="45.99537" lon="4.81563">
        <ele>242</ele>
        <time>2012-04-09T08:33:51Z</time>
      </trkpt>
      <trkpt lat="45.99514" lon="4.81599">
        <ele>243</ele>
        <time>2012-04-09T08:34:01Z</time>
      </trkpt>
      <trkpt lat="45.99497" lon="4.81635">
        <ele>245</ele>
        <time>2012-04-09T08:34:11Z</time>
      </trkpt>
      <trkpt lat="45.99483" lon="4.81671">
        <ele>246</ele>
        <time>2012-04-09T08:34:21Z</time>
      </trkpt>
      <trkpt lat="45.99475" lon="4.81704">
        <ele>247</ele>
        <time>2012-04-09T08:34:31Z</time>
      </trkpt>
      <trkpt lat="45.9948" lon="4.81751">
        <ele>248</ele>
        <time>2012-04-09T08:34:41Z</time>
      </trkpt>
      <trkpt lat="45.99484" lon="4.8178">
        <ele>250</ele>
        <time>2012-04-09T08:34:51Z</time>
      </trkpt>
      <trkpt lat="45.99482" lon="4.8182">
        <ele>252</ele>
        <time>2012-04-09T08:35:01Z</time>
      </trkpt>
      <trkpt lat="45.99464" lon="4.8187">
        <ele>252</ele>
        <time>2012-04-09T08:35:11Z</time>
      </trkpt>
      <trkpt lat="45.99441" lon="4.81936">
        <ele>251</ele>
        <time>2012-04-09T08:35:21Z</time>
      </trkpt>
      <trkpt lat="45.9941" lon="4.82012">
        <ele>247</ele>
        <time>2012-04-09T08:35:31Z</time>
      </trkpt>
      <trkpt lat="45.99385" lon="4.8207">
        <ele>246</ele>
        <time>2012-04-09T08:35:41Z</time>
      </trkpt>
      <trkpt lat="45.99339" lon="4.8204">
        <ele>246</ele>
        <time>2012-04-09T08:35:51Z</time>
      </trkpt>
      <trkpt lat="45.99282" lon="4.82021">
        <ele>246</ele>
        <time>2012-04-09T08:36:01Z</time>
      </trkpt>
      <trkpt lat="45.99223" lon="4.82064">
        <ele>243</ele>
        <time>2012-04-09T08:36:11Z</time>
      </trkpt>
      <trkpt lat="45.99169" lon="4.82019">
        <ele>236</ele>
        <time>2012-04-09T08:36:21Z</time>
      </trkpt>
      <trkpt lat="45.99144" lon="4.81918">
        <ele>236</ele>
        <time>2012-04-09T08:36:31Z</time>
      </trkpt>
      <trkpt lat="45.99114" lon="4.81858">
        <ele>231</ele>
        <time>2012-04-09T08:36:41Z</time>
      </trkpt>
      <trkpt lat="45.99098" lon="4.81816">
        <ele>229</ele>
        <time>2012-04-09T08:36:51Z</time>
      </trkpt>
      <trkpt lat="45.99109" lon="4.81793">
        <ele>227</ele>
        <time>2012-04-09T08:37:06Z</time>
      </trkpt>
      <trkpt lat="45.99123" lon="4.81784">
        <ele>227</ele>
        <time>2012-04-09T08:37:16Z</time>
      </trkpt>
      <trkpt lat="45.99124" lon="4.8179">
        <ele>227</ele>
        <time>2012-04-09T08:37:30Z</time>
      </trkpt>
      <trkpt lat="45.99121" lon="4.81792">
        <ele>227</ele>
        <time>2012-04-09T08:37:41Z</time>
      </trkpt>
      <trkpt lat="45.99108" lon="4.81797">
        <ele>227</ele>
        <time>2012-04-09T08:37:51Z</time>
      </trkpt>
      <trkpt lat="45.99094" lon="4.81766">
        <ele>227</ele>
        <time>2012-04-09T08:38:01Z</time>
      </trkpt>
      <trkpt lat="45.99088" lon="4.81732">
        <ele>227</ele>
        <time>2012-04-09T08:38:11Z</time>
      </trkpt>
      <trkpt lat="45.99084" lon="4.81688">
        <ele>227</ele>
        <time>2012-04-09T08:38:21Z</time>
      </trkpt>
      <trkpt lat="45.99078" lon="4.81648">
        <ele>229</ele>
        <time>2012-04-09T08:38:31Z</time>
      </trkpt>
      <trkpt lat="45.99069" lon="4.81608">
        <ele>233</ele>
        <time>2012-04-09T08:38:41Z</time>
      </trkpt>
      <trkpt lat="45.99083" lon="4.81567">
        <ele>233</ele>
        <time>2012-04-09T08:38:51Z</time>
      </trkpt>
      <trkpt lat="45.99098" lon="4.81542">
        <ele>233</ele>
        <time>2012-04-09T08:39:01Z</time>
      </trkpt>
      <trkpt lat="45.991" lon="4.81503">
        <ele>233</ele>
        <time>2012-04-09T08:39:11Z</time>
      </trkpt>
      <trkpt lat="45.99089" lon="4.81445">
        <ele>233</ele>
        <time>2012-04-09T08:39:21Z</time>
      </trkpt>
      <trkpt lat="45.99078" lon="4.81389">
        <ele>233</ele>
        <time>2012-04-09T08:39:31Z</time>
      </trkpt>
      <trkpt lat="45.99025" lon="4.81366">
        <ele>230</ele>
        <time>2012-04-09T08:39:41Z</time>
      </trkpt>
      <trkpt lat="45.98993" lon="4.81334">
        <ele>225</ele>
        <time>2012-04-09T08:39:51Z</time>
      </trkpt>
      <trkpt lat="45.98974" lon="4.81297">
        <ele>227</ele>
        <time>2012-04-09T08:40:01Z</time>
      </trkpt>
      <trkpt lat="45.98972" lon="4.81276">
        <ele>234</ele>
        <time>2012-04-09T08:40:11Z</time>
      </trkpt>
      <trkpt lat="45.98976" lon="4.81277">
        <ele>234</ele>
        <time>2012-04-09T08:40:23Z</time>
      </trkpt>
      <trkpt lat="45.98975" lon="4.8128">
        <ele>233</ele>
        <time>2012-04-09T08:40:35Z</time>
      </trkpt>
      <trkpt lat="45.98974" lon="4.81266">
        <ele>237</ele>
        <time>2012-04-09T08:40:45Z</time>
      </trkpt>
      <trkpt lat="45.98977" lon="4.81263">
        <ele>238</ele>
        <time>2012-04-09T08:40:56Z</time>
      </trkpt>
      <trkpt lat="45.98975" lon="4.81265">
        <ele>238</ele>
        <time>2012-04-09T08:41:08Z</time>
      </trkpt>
      <trkpt lat="45.9897" lon="4.81258">
        <ele>238</ele>
        <time>2012-04-09T08:41:19Z</time>
      </trkpt>
      <trkpt lat="45.98953" lon="4.81252">
        <ele>241</ele>
        <time>2012-04-09T08:41:29Z</time>
      </trkpt>
      <trkpt lat="45.98927" lon="4.81243">
        <ele>243</ele>
        <time>2012-04-09T08:41:40Z</time>
      </trkpt>
      <trkpt lat="45.98896" lon="4.81226">
        <ele>243</ele>
        <time>2012-04-09T08:41:51Z</time>
      </trkpt>
      <trkpt lat="45.98875" lon="4.81215">
        <ele>247</ele>
        <time>2012-04-09T08:42:01Z</time>
      </trkpt>
      <trkpt lat="45.98856" lon="4.81206">
        <ele>255</ele>
        <time>2012-04-09T08:42:11Z</time>
      </trkpt>
      <trkpt lat="45.98838" lon="4.81196">
        <ele>258</ele>
        <time>2012-04-09T08:42:21Z</time>
      </trkpt>
      <trkpt lat="45.98808" lon="4.81181">
        <ele>259</ele>
        <time>2012-04-09T08:42:31Z</time>
      </trkpt>
      <trkpt lat="45.98778" lon="4.8117">
        <ele>260</ele>
        <time>2012-04-09T08:42:41Z</time>
      </trkpt>
      <trkpt lat="45.98748" lon="4.81159">
        <ele>260</ele>
        <time>2012-04-09T08:42:51Z</time>
      </trkpt>
      <trkpt lat="45.98721" lon="4.81146">
        <ele>256</ele>
        <time>2012-04-09T08:43:01Z</time>
      </trkpt>
      <trkpt lat="45.98713" lon="4.81141">
        <ele>256</ele>
        <time>2012-04-09T08:43:12Z</time>
      </trkpt>
      <trkpt lat="45.98706" lon="4.81137">
        <ele>256</ele>
        <time>2012-04-09T08:43:23Z</time>
      </trkpt>
      <trkpt lat="45.98687" lon="4.81115">
        <ele>256</ele>
        <time>2012-04-09T08:43:33Z</time>
      </trkpt>
      <trkpt lat="45.9868" lon="4.81096">
        <ele>256</ele>
        <time>2012-04-09T08:43:44Z</time>
      </trkpt>
      <trkpt lat="45.98678" lon="4.8109">
        <ele>259</ele>
        <time>2012-04-09T08:43:55Z</time>
      </trkpt>
      <trkpt lat="45.9868" lon="4.81087">
        <ele>259</ele>
        <time>2012-04-09T08:44:06Z</time>
      </trkpt>
      <trkpt lat="45.9868" lon="4.81083">
        <ele>252</ele>
        <time>2012-04-09T08:44:22Z</time>
      </trkpt>
      <trkpt lat="45.98677" lon="4.81078">
        <ele>251</ele>
        <time>2012-04-09T08:44:34Z</time>
      </trkpt>
      <trkpt lat="45.9867" lon="4.8107">
        <ele>248</ele>
        <time>2012-04-09T08:44:45Z</time>
      </trkpt>
      <trkpt lat="45.98652" lon="4.81037">
        <ele>248</ele>
        <time>2012-04-09T08:44:55Z</time>
      </trkpt>
      <trkpt lat="45.98638" lon="4.81003">
        <ele>250</ele>
        <time>2012-04-09T08:45:05Z</time>
      </trkpt>
      <trkpt lat="45.9862" lon="4.80962">
        <ele>252</ele>
        <time>2012-04-09T08:45:15Z</time>
      </trkpt>
      <trkpt lat="45.98601" lon="4.80919">
        <ele>252</ele>
        <time>2012-04-09T08:45:25Z</time>
      </trkpt>
      <trkpt lat="45.98561" lon="4.80834">
        <ele>252</ele>
        <time>2012-04-09T08:45:35Z</time>
      </trkpt>
      <trkpt lat="45.98532" lon="4.80756">
        <ele>246</ele>
        <time>2012-04-09T08:45:45Z</time>
      </trkpt>
      <trkpt lat="45.98513" lon="4.80688">
        <ele>240</ele>
        <time>2012-04-09T08:45:55Z</time>
      </trkpt>
      <trkpt lat="45.98496" lon="4.80618">
        <ele>238</ele>
        <time>2012-04-09T08:46:05Z</time>
      </trkpt>
      <trkpt lat="45.98482" lon="4.80556">
        <ele>238</ele>
        <time>2012-04-09T08:46:15Z</time>
      </trkpt>
      <trkpt lat="45.98483" lon="4.80518">
        <ele>235</ele>
        <time>2012-04-09T08:46:25Z</time>
      </trkpt>
      <trkpt lat="45.9848" lon="4.8049">
        <ele>234</ele>
        <time>2012-04-09T08:46:35Z</time>
      </trkpt>
      <trkpt lat="45.98473" lon="4.80459">
        <ele>231</ele>
        <time>2012-04-09T08:46:45Z</time>
      </trkpt>
      <trkpt lat="45.98466" lon="4.80435">
        <ele>231</ele>
        <time>2012-04-09T08:46:55Z</time>
      </trkpt>
      <trkpt lat="45.98451" lon="4.80399">
        <ele>231</ele>
        <time>2012-04-09T08:47:05Z</time>
      </trkpt>
      <trkpt lat="45.9844" lon="4.80371">
        <ele>231</ele>
        <time>2012-04-09T08:47:15Z</time>
      </trkpt>
      <trkpt lat="45.98427" lon="4.80353">
        <ele>231</ele>
        <time>2012-04-09T08:47:25Z</time>
      </trkpt>
      <trkpt lat="45.98411" lon="4.80332">
        <ele>231</ele>
        <time>2012-04-09T08:47:35Z</time>
      </trkpt>
      <trkpt lat="45.98397" lon="4.80304">
        <ele>231</ele>
        <time>2012-04-09T08:47:45Z</time>
      </trkpt>
      <trkpt lat="45.98373" lon="4.80266">
        <ele>231</ele>
        <time>2012-04-09T08:47:55Z</time>
      </trkpt>
      <trkpt lat="45.9835" lon="4.80229">
        <ele>230</ele>
        <time>2012-04-09T08:48:05Z</time>
      </trkpt>
      <trkpt lat="45.98334" lon="4.80237">
        <ele>223</ele>
        <time>2012-04-09T08:48:15Z</time>
      </trkpt>
      <trkpt lat="45.98335" lon="4.80245">
        <ele>223</ele>
        <time>2012-04-09T08:48:32Z</time>
      </trkpt>
      <trkpt lat="45.98333" lon="4.80244">
        <ele>223</ele>
        <time>2012-04-09T08:48:42Z</time>
      </trkpt>
      <trkpt lat="45.98334" lon="4.80242">
        <ele>223</ele>
        <time>2012-04-09T08:48:54Z</time>
      </trkpt>
      <trkpt lat="45.98332" lon="4.80241">
        <ele>224</ele>
        <time>2012-04-09T08:49:06Z</time>
      </trkpt>
      <trkpt lat="45.98332" lon="4.8024">
        <ele>226</ele>
        <time>2012-04-09T08:49:16Z</time>
      </trkpt>
      <trkpt lat="45.98331" lon="4.80239">
        <ele>229</ele>
        <time>2012-04-09T08:49:29Z</time>
      </trkpt>
      <trkpt lat="45.98335" lon="4.8024">
        <ele>229</ele>
        <time>2012-04-09T08:49:40Z</time>
      </trkpt>
      <trkpt lat="45.98336" lon="4.80235">
        <ele>232</ele>
        <time>2012-04-09T08:49:52Z</time>
      </trkpt>
      <trkpt lat="45.98336" lon="4.80233">
        <ele>238</ele>
        <time>2012-04-09T08:50:02Z</time>
      </trkpt>
      <trkpt lat="45.98336" lon="4.80234">
        <ele>238</ele>
        <time>2012-04-09T08:50:13Z</time>
      </trkpt>
      <trkpt lat="45.98337" lon="4.80236">
        <ele>239</ele>
        <time>2012-04-09T08:50:24Z</time>
      </trkpt>
      <trkpt lat="45.98336" lon="4.80238">
        <ele>240</ele>
        <time>2012-04-09T08:50:34Z</time>
      </trkpt>
      <trkpt lat="45.98334" lon="4.80241">
        <ele>240</ele>
        <time>2012-04-09T08:50:47Z</time>
      </trkpt>
      <trkpt lat="45.98335" lon="4.80243">
        <ele>240</ele>
        <time>2012-04-09T08:50:57Z</time>
      </trkpt>
      <trkpt lat="45.98336" lon="4.80244">
        <ele>240</ele>
        <time>2012-04-09T08:51:07Z</time>
      </trkpt>
      <trkpt lat="45.98332" lon="4.8024">
        <ele>241</ele>
        <time>2012-04-09T08:51:22Z</time>
      </trkpt>
      <trkpt lat="45.98331" lon="4.80242">
        <ele>241</ele>
        <time>2012-04-09T08:51:35Z</time>
      </trkpt>
      <trkpt lat="45.9833" lon="4.80246">
        <ele>237</ele>
        <time>2012-04-09T08:51:52Z</time>
      </trkpt>
      <trkpt lat="45.98329" lon="4.80244">
        <ele>232</ele>
        <time>2012-04-09T08:52:08Z</time>
      </trkpt>
      <trkpt lat="45.98328" lon="4.80237">
        <ele>232</ele>
        <time>2012-04-09T08:52:19Z</time>
      </trkpt>
      <trkpt lat="45.98331" lon="4.80231">
        <ele>236</ele>
        <time>2012-04-09T08:52:31Z</time>
      </trkpt>
      <trkpt lat="45.98331" lon="4.80236">
        <ele>237</ele>
        <time>2012-04-09T08:52:42Z</time>
      </trkpt>
      <trkpt lat="45.98336" lon="4.80237">
        <ele>229</ele>
        <time>2012-04-09T08:52:53Z</time>
      </trkpt>
      <trkpt lat="45.98336" lon="4.80236">
        <ele>223</ele>
        <time>2012-04-09T08:53:06Z</time>
      </trkpt>
      <trkpt lat="45.98336" lon="4.80237">
        <ele>222</ele>
        <time>2012-04-09T08:53:24Z</time>
      </trkpt>
      <trkpt lat="45.98338" lon="4.80237">
        <ele>222</ele>
        <time>2012-04-09T08:53:36Z</time>
      </trkpt>
      <trkpt lat="45.9834" lon="4.8024">
        <ele>220</ele>
        <time>2012-04-09T08:53:47Z</time>
      </trkpt>
      <trkpt lat="45.98339" lon="4.80239">
        <ele>220</ele>
        <time>2012-04-09T08:54:02Z</time>
      </trkpt>
      <trkpt lat="45.98342" lon="4.80242">
        <ele>223</ele>
        <time>2012-04-09T08:54:18Z</time>
      </trkpt>
      <trkpt lat="45.98342" lon="4.80269">
        <ele>229</ele>
        <time>2012-04-09T08:54:28Z</time>
      </trkpt>
      <trkpt lat="45.98334" lon="4.80315">
        <ele>234</ele>
        <time>2012-04-09T08:54:38Z</time>
      </trkpt>
      <trkpt lat="45.98333" lon="4.80399">
        <ele>242</ele>
        <time>2012-04-09T08:54:48Z</time>
      </trkpt>
      <trkpt lat="45.98349" lon="4.80469">
        <ele>248</ele>
        <time>2012-04-09T08:54:58Z</time>
      </trkpt>
      <trkpt lat="45.9837" lon="4.80539">
        <ele>242</ele>
        <time>2012-04-09T08:55:08Z</time>
      </trkpt>
      <trkpt lat="45.98396" lon="4.80594">
        <ele>235</ele>
        <time>2012-04-09T08:55:18Z</time>
      </trkpt>
      <trkpt lat="45.98417" lon="4.80648">
        <ele>230</ele>
        <time>2012-04-09T08:55:28Z</time>
      </trkpt>
      <trkpt lat="45.98443" lon="4.80709">
        <ele>230</ele>
        <time>2012-04-09T08:55:38Z</time>
      </trkpt>
      <trkpt lat="45.9846" lon="4.80776">
        <ele>233</ele>
        <time>2012-04-09T08:55:48Z</time>
      </trkpt>
      <trkpt lat="45.98493" lon="4.80823">
        <ele>234</ele>
        <time>2012-04-09T08:55:58Z</time>
      </trkpt>
      <trkpt lat="45.98519" lon="4.80848">
        <ele>234</ele>
        <time>2012-04-09T08:56:08Z</time>
      </trkpt>
      <trkpt lat="45.98531" lon="4.80888">
        <ele>237</ele>
        <time>2012-04-09T08:56:18Z</time>
      </trkpt>
      <trkpt lat="45.98541" lon="4.80928">
        <ele>238</ele>
        <time>2012-04-09T08:56:28Z</time>
      </trkpt>
      <trkpt lat="45.98552" lon="4.80963">
        <ele>239</ele>
        <time>2012-04-09T08:56:38Z</time>
      </trkpt>
      <trkpt lat="45.98568" lon="4.81006">
        <ele>242</ele>
        <time>2012-04-09T08:56:48Z</time>
      </trkpt>
      <trkpt lat="45.98588" lon="4.81042">
        <ele>242</ele>
        <time>2012-04-09T08:56:58Z</time>
      </trkpt>
      <trkpt lat="45.98607" lon="4.81072">
        <ele>242</ele>
        <time>2012-04-09T08:57:08Z</time>
      </trkpt>
      <trkpt lat="45.98628" lon="4.81106">
        <ele>242</ele>
        <time>2012-04-09T08:57:18Z</time>
      </trkpt>
      <trkpt lat="45.98648" lon="4.81141">
        <ele>242</ele>
        <time>2012-04-09T08:57:28Z</time>
      </trkpt>
      <trkpt lat="45.98663" lon="4.81188">
        <ele>242</ele>
        <time>2012-04-09T08:57:38Z</time>
      </trkpt>
      <trkpt lat="45.98674" lon="4.81211">
        <ele>242</ele>
        <time>2012-04-09T08:57:48Z</time>
      </trkpt>
      <trkpt lat="45.98685" lon="4.81234">
        <ele>245</ele>
        <time>2012-04-09T08:57:58Z</time>
      </trkpt>
      <trkpt lat="45.98711" lon="4.81263">
        <ele>245</ele>
        <time>2012-04-09T08:58:08Z</time>
      </trkpt>
      <trkpt lat="45.98739" lon="4.81288">
        <ele>238</ele>
        <time>2012-04-09T08:58:18Z</time>
      </trkpt>
      <trkpt lat="45.98763" lon="4.81306">
        <ele>232</ele>
        <time>2012-04-09T08:58:28Z</time>
      </trkpt>
      <trkpt lat="45.98785" lon="4.81324">
        <ele>230</ele>
        <time>2012-04-09T08:58:38Z</time>
      </trkpt>
      <trkpt lat="45.98805" lon="4.81329">
        <ele>227</ele>
        <time>2012-04-09T08:58:48Z</time>
      </trkpt>
      <trkpt lat="45.98829" lon="4.81322">
        <ele>225</ele>
        <time>2012-04-09T08:58:58Z</time>
      </trkpt>
      <trkpt lat="45.98857" lon="4.81315">
        <ele>223</ele>
        <time>2012-04-09T08:59:08Z</time>
      </trkpt>
      <trkpt lat="45.98879" lon="4.8131">
        <ele>226</ele>
        <time>2012-04-09T08:59:18Z</time>
      </trkpt>
      <trkpt lat="45.98912" lon="4.81309">
        <ele>235</ele>
        <time>2012-04-09T08:59:28Z</time>
      </trkpt>
      <trkpt lat="45.98934" lon="4.813">
        <ele>243</ele>
        <time>2012-04-09T08:59:38Z</time>
      </trkpt>
      <trkpt lat="45.98947" lon="4.81293">
        <ele>252</ele>
        <time>2012-04-09T08:59:48Z</time>
      </trkpt>
      <trkpt lat="45.9895" lon="4.81274">
        <ele>260</ele>
        <time>2012-04-09T08:59:58Z</time>
      </trkpt>
      <trkpt lat="45.98959" lon="4.8126">
        <ele>260</ele>
        <time>2012-04-09T09:00:10Z</time>
      </trkpt>
      <trkpt lat="45.98948" lon="4.81251">
        <ele>260</ele>
        <time>2012-04-09T09:00:20Z</time>
      </trkpt>
      <trkpt lat="45.98931" lon="4.81243">
        <ele>259</ele>
        <time>2012-04-09T09:00:30Z</time>
      </trkpt>
      <trkpt lat="45.98919" lon="4.81242">
        <ele>259</ele>
        <time>2012-04-09T09:00:40Z</time>
      </trkpt>
      <trkpt lat="45.98921" lon="4.8124">
        <ele>250</ele>
        <time>2012-04-09T09:00:53Z</time>
      </trkpt>
      <trkpt lat="45.98918" lon="4.8124">
        <ele>242</ele>
        <time>2012-04-09T09:01:03Z</time>
      </trkpt>
      <trkpt lat="45.98916" lon="4.81239">
        <ele>236</ele>
        <time>2012-04-09T09:01:15Z</time>
      </trkpt>
      <trkpt lat="45.98914" lon="4.81236">
        <ele>236</ele>
        <time>2012-04-09T09:01:25Z</time>
      </trkpt>
      <trkpt lat="45.98908" lon="4.81231">
        <ele>233</ele>
        <time>2012-04-09T09:01:36Z</time>
      </trkpt>
      <trkpt lat="45.98905" lon="4.81226">
        <ele>233</ele>
        <time>2012-04-09T09:01:47Z</time>
      </trkpt>
      <trkpt lat="45.98904" lon="4.81224">
        <ele>236</ele>
        <time>2012-04-09T09:02:01Z</time>
      </trkpt>
      <trkpt lat="45.989" lon="4.81225">
        <ele>256</ele>
        <time>2012-04-09T09:02:15Z</time>
      </trkpt>
      <trkpt lat="45.98902" lon="4.81231">
        <ele>263</ele>
        <time>2012-04-09T09:02:33Z</time>
      </trkpt>
      <trkpt lat="45.98901" lon="4.81236">
        <ele>263</ele>
        <time>2012-04-09T09:02:43Z</time>
      </trkpt>
      <trkpt lat="45.98898" lon="4.81236">
        <ele>262</ele>
        <time>2012-04-09T09:02:54Z</time>
      </trkpt>
      <trkpt lat="45.98903" lon="4.81236">
        <ele>252</ele>
        <time>2012-04-09T09:03:04Z</time>
      </trkpt>
      <trkpt lat="45.98903" lon="4.81236">
        <ele>245</ele>
        <time>2012-04-09T09:03:16Z</time>
      </trkpt>
      <trkpt lat="45.98882" lon="4.81255">
        <ele>247</ele>
        <time>2012-04-09T09:03:26Z</time>
      </trkpt>
      <trkpt lat="45.98871" lon="4.81296">
        <ele>249</ele>
        <time>2012-04-09T09:03:36Z</time>
      </trkpt>
      <trkpt lat="45.98849" lon="4.81321">
        <ele>253</ele>
        <time>2012-04-09T09:03:47Z</time>
      </trkpt>
      <trkpt lat="45.98843" lon="4.8132">
        <ele>254</ele>
        <time>2012-04-09T09:04:00Z</time>
      </trkpt>
      <trkpt lat="45.98843" lon="4.8132">
        <ele>246</ele>
        <time>2012-04-09T09:04:10Z</time>
      </trkpt>
      <trkpt lat="45.98843" lon="4.81319">
        <ele>241</ele>
        <time>2012-04-09T09:04:23Z</time>
      </trkpt>
      <trkpt lat="45.98846" lon="4.81324">
        <ele>241</ele>
        <time>2012-04-09T09:04:33Z</time>
      </trkpt>
      <trkpt lat="45.98849" lon="4.81319">
        <ele>244</ele>
        <time>2012-04-09T09:04:44Z</time>
      </trkpt>
      <trkpt lat="45.98848" lon="4.81318">
        <ele>245</ele>
        <time>2012-04-09T09:05:00Z</time>
      </trkpt>
      <trkpt lat="45.98846" lon="4.8132">
        <ele>241</ele>
        <time>2012-04-09T09:05:11Z</time>
      </trkpt>
      <trkpt lat="45.98845" lon="4.81322">
        <ele>235</ele>
        <time>2012-04-09T09:05:30Z</time>
      </trkpt>
      <trkpt lat="45.98849" lon="4.81316">
        <ele>224</ele>
        <time>2012-04-09T09:05:44Z</time>
      </trkpt>
      <trkpt lat="45.98849" lon="4.81315">
        <ele>219</ele>
        <time>2012-04-09T09:05:56Z</time>
      </trkpt>
      <trkpt lat="45.98848" lon="4.81316">
        <ele>219</ele>
        <time>2012-04-09T09:06:03Z</time>
      </trkpt>
      <trkpt lat="45.98846" lon="4.81319">
        <ele>219</ele>
        <time>2012-04-09T09:06:13Z</time>
      </trkpt>
      <trkpt lat="45.98848" lon="4.81323">
        <ele>228</ele>
        <time>2012-04-09T09:06:23Z</time>
      </trkpt>
      <trkpt lat="45.98845" lon="4.81325">
        <ele>233</ele>
        <time>2012-04-09T09:06:36Z</time>
      </trkpt>
      <trkpt lat="45.98841" lon="4.81324">
        <ele>234</ele>
        <time>2012-04-09T09:06:50Z</time>
      </trkpt>
      <trkpt lat="45.9884" lon="4.81323">
        <ele>236</ele>
        <time>2012-04-09T09:07:03Z</time>
      </trkpt>
      <trkpt lat="45.98838" lon="4.81322">
        <ele>238</ele>
        <time>2012-04-09T09:07:14Z</time>
      </trkpt>
      <trkpt lat="45.98838" lon="4.81318">
        <ele>240</ele>
        <time>2012-04-09T09:07:28Z</time>
      </trkpt>
      <trkpt lat="45.98834" lon="4.81318">
        <ele>240</ele>
        <time>2012-04-09T09:07:38Z</time>
      </trkpt>
      <trkpt lat="45.98826" lon="4.81319">
        <ele>245</ele>
        <time>2012-04-09T09:07:52Z</time>
      </trkpt>
      <trkpt lat="45.98823" lon="4.81328">
        <ele>255</ele>
        <time>2012-04-09T09:08:03Z</time>
      </trkpt>
      <trkpt lat="45.98822" lon="4.8134">
        <ele>260</ele>
        <time>2012-04-09T09:08:14Z</time>
      </trkpt>
      <trkpt lat="45.98822" lon="4.81346">
        <ele>266</ele>
        <time>2012-04-09T09:08:25Z</time>
      </trkpt>
      <trkpt lat="45.98822" lon="4.8135">
        <ele>269</ele>
        <time>2012-04-09T09:08:39Z</time>
      </trkpt>
      <trkpt lat="45.98825" lon="4.8134">
        <ele>267</ele>
        <time>2012-04-09T09:08:49Z</time>
      </trkpt>
      <trkpt lat="45.98832" lon="4.81332">
        <ele>257</ele>
        <time>2012-04-09T09:08:59Z</time>
      </trkpt>
      <trkpt lat="45.98839" lon="4.81329">
        <ele>247</ele>
        <time>2012-04-09T09:09:09Z</time>
      </trkpt>
      <trkpt lat="45.98844" lon="4.81326">
        <ele>237</ele>
        <time>2012-04-09T09:09:25Z</time>
      </trkpt>
      <trkpt lat="45.98842" lon="4.81327">
        <ele>237</ele>
        <time>2012-04-09T09:09:35Z</time>
      </trkpt>
      <trkpt lat="45.98842" lon="4.81326">
        <ele>238</ele>
        <time>2012-04-09T09:09:49Z</time>
      </trkpt>
      <trkpt lat="45.98862" lon="4.8132">
        <ele>238</ele>
        <time>2012-04-09T09:09:59Z</time>
      </trkpt>
      <trkpt lat="45.98892" lon="4.81311">
        <ele>238</ele>
        <time>2012-04-09T09:10:09Z</time>
      </trkpt>
      <trkpt lat="45.98924" lon="4.813">
        <ele>239</ele>
        <time>2012-04-09T09:10:19Z</time>
      </trkpt>
      <trkpt lat="45.98946" lon="4.81289">
        <ele>246</ele>
        <time>2012-04-09T09:10:29Z</time>
      </trkpt>
      <trkpt lat="45.9896" lon="4.81279">
        <ele>249</ele>
        <time>2012-04-09T09:10:39Z</time>
      </trkpt>
      <trkpt lat="45.9897" lon="4.8127">
        <ele>250</ele>
        <time>2012-04-09T09:10:49Z</time>
      </trkpt>
      <trkpt lat="45.98976" lon="4.81264">
        <ele>253</ele>
        <time>2012-04-09T09:10:59Z</time>
      </trkpt>
      <trkpt lat="45.98989" lon="4.81265">
        <ele>245</ele>
        <time>2012-04-09T09:11:10Z</time>
      </trkpt>
      <trkpt lat="45.98991" lon="4.81267">
        <ele>245</ele>
        <time>2012-04-09T09:11:21Z</time>
      </trkpt>
      <trkpt lat="45.98993" lon="4.81265">
        <ele>245</ele>
        <time>2012-04-09T09:11:31Z</time>
      </trkpt>
      <trkpt lat="45.98997" lon="4.81265">
        <ele>239</ele>
        <time>2012-04-09T09:11:42Z</time>
      </trkpt>
      <trkpt lat="45.98996" lon="4.81262">
        <ele>230</ele>
        <time>2012-04-09T09:11:58Z</time>
      </trkpt>
      <trkpt lat="45.99" lon="4.81263">
        <ele>230</ele>
        <time>2012-04-09T09:12:14Z</time>
      </trkpt>
      <trkpt lat="45.98991" lon="4.81259">
        <ele>238</ele>
        <time>2012-04-09T09:12:24Z</time>
      </trkpt>
      <trkpt lat="45.98972" lon="4.81256">
        <ele>250</ele>
        <time>2012-04-09T09:12:34Z</time>
      </trkpt>
      <trkpt lat="45.98955" lon="4.81255">
        <ele>266</ele>
        <time>2012-04-09T09:12:44Z</time>
      </trkpt>
      <trkpt lat="45.98936" lon="4.81255">
        <ele>277</ele>
        <time>2012-04-09T09:12:54Z</time>
      </trkpt>
      <trkpt lat="45.98918" lon="4.81252">
        <ele>280</ele>
        <time>2012-04-09T09:13:05Z</time>
      </trkpt>
      <trkpt lat="45.98907" lon="4.81243">
        <ele>278</ele>
        <time>2012-04-09T09:13:16Z</time>
      </trkpt>
      <trkpt lat="45.98907" lon="4.81238">
        <ele>272</ele>
        <time>2012-04-09T09:13:26Z</time>
      </trkpt>
      <trkpt lat="45.98897" lon="4.81228">
        <ele>266</ele>
        <time>2012-04-09T09:13:36Z</time>
      </trkpt>
      <trkpt lat="45.9889" lon="4.81208">
        <ele>266</ele>
        <time>2012-04-09T09:13:46Z</time>
      </trkpt>
      <trkpt lat="45.98895" lon="4.81191">
        <ele>266</ele>
        <time>2012-04-09T09:13:56Z</time>
      </trkpt>
      <trkpt lat="45.98895" lon="4.81186">
        <ele>269</ele>
        <time>2012-04-09T09:14:07Z</time>
      </trkpt>
      <trkpt lat="45.98894" lon="4.81175">
        <ele>272</ele>
        <time>2012-04-09T09:14:17Z</time>
      </trkpt>
      <trkpt lat="45.98901" lon="4.81166">
        <ele>274</ele>
        <time>2012-04-09T09:14:29Z</time>
      </trkpt>
      <trkpt lat="45.98904" lon="4.81159">
        <ele>274</ele>
        <time>2012-04-09T09:14:46Z</time>
      </trkpt>
      <trkpt lat="45.98912" lon="4.81156">
        <ele>274</ele>
        <time>2012-04-09T09:14:56Z</time>
      </trkpt>
      <trkpt lat="45.98917" lon="4.81159">
        <ele>274</ele>
        <time>2012-04-09T09:15:09Z</time>
      </trkpt>
      <trkpt lat="45.98921" lon="4.81165">
        <ele>273</ele>
        <time>2012-04-09T09:15:20Z</time>
      </trkpt>
      <trkpt lat="45.98919" lon="4.81175">
        <ele>272</ele>
        <time>2012-04-09T09:15:30Z</time>
      </trkpt>
      <trkpt lat="45.98915" lon="4.8118">
        <ele>272</ele>
        <time>2012-04-09T09:15:42Z</time>
      </trkpt>
      <trkpt lat="45.98924" lon="4.81171">
        <ele>268</ele>
        <time>2012-04-09T09:15:52Z</time>
      </trkpt>
      <trkpt lat="45.98923" lon="4.81161">
        <ele>263</ele>
        <time>2012-04-09T09:16:02Z</time>
      </trkpt>
      <trkpt lat="45.98923" lon="4.81156">
        <ele>262</ele>
        <time>2012-04-09T09:16:12Z</time>
      </trkpt>
      <trkpt lat="45.98927" lon="4.81159">
        <ele>262</ele>
        <time>2012-04-09T09:16:22Z</time>
      </trkpt>
      <trkpt lat="45.98936" lon="4.81159">
        <ele>266</ele>
        <time>2012-04-09T09:16:33Z</time>
      </trkpt>
      <trkpt lat="45.98935" lon="4.81157">
        <ele>270</ele>
        <time>2012-04-09T09:16:48Z</time>
      </trkpt>
      <trkpt lat="45.98932" lon="4.81166">
        <ele>270</ele>
        <time>2012-04-09T09:16:59Z</time>
      </trkpt>
      <trkpt lat="45.98923" lon="4.81179">
        <ele>270</ele>
        <time>2012-04-09T09:17:09Z</time>
      </trkpt>
      <trkpt lat="45.98912" lon="4.81187">
        <ele>270</ele>
        <time>2012-04-09T09:17:21Z</time>
      </trkpt>
      <trkpt lat="45.98909" lon="4.81185">
        <ele>268</ele>
        <time>2012-04-09T09:17:33Z</time>
      </trkpt>
      <trkpt lat="45.98901" lon="4.81204">
        <ele>266</ele>
        <time>2012-04-09T09:17:43Z</time>
      </trkpt>
      <trkpt lat="45.98896" lon="4.81214">
        <ele>265</ele>
        <time>2012-04-09T09:18:03Z</time>
      </trkpt>
      <trkpt lat="45.98894" lon="4.81216">
        <ele>265</ele>
        <time>2012-04-09T09:18:15Z</time>
      </trkpt>
      <trkpt lat="45.98894" lon="4.81217">
        <ele>264</ele>
        <time>2012-04-09T09:18:31Z</time>
      </trkpt>
      <trkpt lat="45.98892" lon="4.81209">
        <ele>264</ele>
        <time>2012-04-09T09:18:42Z</time>
      </trkpt>
      <trkpt lat="45.98889" lon="4.81219">
        <ele>264</ele>
        <time>2012-04-09T09:18:55Z</time>
      </trkpt>
      <trkpt lat="45.98879" lon="4.81221">
        <ele>264</ele>
        <time>2012-04-09T09:19:06Z</time>
      </trkpt>
      <trkpt lat="45.98864" lon="4.8121">
        <ele>266</ele>
        <time>2012-04-09T09:19:17Z</time>
      </trkpt>
      <trkpt lat="45.98846" lon="4.81201">
        <ele>268</ele>
        <time>2012-04-09T09:19:27Z</time>
      </trkpt>
      <trkpt lat="45.98821" lon="4.81186">
        <ele>275</ele>
        <time>2012-04-09T09:19:37Z</time>
      </trkpt>
      <trkpt lat="45.98796" lon="4.81172">
        <ele>283</ele>
        <time>2012-04-09T09:19:47Z</time>
      </trkpt>
      <trkpt lat="45.98774" lon="4.81168">
        <ele>285</ele>
        <time>2012-04-09T09:19:57Z</time>
      </trkpt>
      <trkpt lat="45.98743" lon="4.81151">
        <ele>285</ele>
        <time>2012-04-09T09:20:10Z</time>
      </trkpt>
      <trkpt lat="45.98714" lon="4.81146">
        <ele>281</ele>
        <time>2012-04-09T09:20:20Z</time>
      </trkpt>
      <trkpt lat="45.98715" lon="4.8115">
        <ele>272</ele>
        <time>2012-04-09T09:20:31Z</time>
      </trkpt>
      <trkpt lat="45.9872" lon="4.81146">
        <ele>261</ele>
        <time>2012-04-09T09:20:44Z</time>
      </trkpt>
      <trkpt lat="45.98715" lon="4.81143">
        <ele>261</ele>
        <time>2012-04-09T09:20:54Z</time>
      </trkpt>
      <trkpt lat="45.98704" lon="4.81136">
        <ele>259</ele>
        <time>2012-04-09T09:21:08Z</time>
      </trkpt>
      <trkpt lat="45.987" lon="4.81129">
        <ele>252</ele>
        <time>2012-04-09T09:21:18Z</time>
      </trkpt>
      <trkpt lat="45.98676" lon="4.81125">
        <ele>252</ele>
        <time>2012-04-09T09:21:28Z</time>
      </trkpt>
      <trkpt lat="45.98657" lon="4.81125">
        <ele>250</ele>
        <time>2012-04-09T09:21:39Z</time>
      </trkpt>
      <trkpt lat="45.98652" lon="4.8113">
        <ele>245</ele>
        <time>2012-04-09T09:21:49Z</time>
      </trkpt>
      <trkpt lat="45.9865" lon="4.81118">
        <ele>242</ele>
        <time>2012-04-09T09:21:59Z</time>
      </trkpt>
      <trkpt lat="45.98649" lon="4.81114">
        <ele>238</ele>
        <time>2012-04-09T09:22:10Z</time>
      </trkpt>
      <trkpt lat="45.98648" lon="4.81112">
        <ele>231</ele>
        <time>2012-04-09T09:22:20Z</time>
      </trkpt>
      <trkpt lat="45.98656" lon="4.81133">
        <ele>228</ele>
        <time>2012-04-09T09:22:30Z</time>
      </trkpt>
      <trkpt lat="45.98651" lon="4.81153">
        <ele>232</ele>
        <time>2012-04-09T09:22:41Z</time>
      </trkpt>
      <trkpt lat="45.98636" lon="4.81145">
        <ele>235</ele>
        <time>2012-04-09T09:22:51Z</time>
      </trkpt>
      <trkpt lat="45.98635" lon="4.81137">
        <ele>239</ele>
        <time>2012-04-09T09:23:03Z</time>
      </trkpt>
      <trkpt lat="45.98642" lon="4.81146">
        <ele>239</ele>
        <time>2012-04-09T09:23:13Z</time>
      </trkpt>
      <trkpt lat="45.98641" lon="4.81148">
        <ele>241</ele>
        <time>2012-04-09T09:23:24Z</time>
      </trkpt>
      <trkpt lat="45.9864" lon="4.81145">
        <ele>237</ele>
        <time>2012-04-09T09:23:42Z</time>
      </trkpt>
      <trkpt lat="45.98637" lon="4.81141">
        <ele>232</ele>
        <time>2012-04-09T09:23:54Z</time>
      </trkpt>
      <trkpt lat="45.98633" lon="4.81141">
        <ele>233</ele>
        <time>2012-04-09T09:24:07Z</time>
      </trkpt>
      <trkpt lat="45.98638" lon="4.81146">
        <ele>241</ele>
        <time>2012-04-09T09:24:18Z</time>
      </trkpt>
      <trkpt lat="45.98639" lon="4.81148">
        <ele>242</ele>
        <time>2012-04-09T09:24:29Z</time>
      </trkpt>
      <trkpt lat="45.9864" lon="4.81149">
        <ele>244</ele>
        <time>2012-04-09T09:24:42Z</time>
      </trkpt>
      <trkpt lat="45.98639" lon="4.81154">
        <ele>238</ele>
        <time>2012-04-09T09:24:57Z</time>
      </trkpt>
      <trkpt lat="45.98645" lon="4.81157">
        <ele>237</ele>
        <time>2012-04-09T09:25:09Z</time>
      </trkpt>
      <trkpt lat="45.98657" lon="4.81178">
        <ele>237</ele>
        <time>2012-04-09T09:25:19Z</time>
      </trkpt>
      <trkpt lat="45.98684" lon="4.81228">
        <ele>239</ele>
        <time>2012-04-09T09:25:30Z</time>
      </trkpt>
      <trkpt lat="45.9871" lon="4.81255">
        <ele>244</ele>
        <time>2012-04-09T09:25:40Z</time>
      </trkpt>
      <trkpt lat="45.98748" lon="4.81282">
        <ele>248</ele>
        <time>2012-04-09T09:25:50Z</time>
      </trkpt>
      <trkpt lat="45.98788" lon="4.81312">
        <ele>249</ele>
        <time>2012-04-09T09:26:01Z</time>
      </trkpt>
      <trkpt lat="45.98819" lon="4.81341">
        <ele>249</ele>
        <time>2012-04-09T09:26:11Z</time>
      </trkpt>
      <trkpt lat="45.98845" lon="4.81363">
        <ele>244</ele>
        <time>2012-04-09T09:26:21Z</time>
      </trkpt>
      <trkpt lat="45.98867" lon="4.81419">
        <ele>234</ele>
        <time>2012-04-09T09:26:31Z</time>
      </trkpt>
      <trkpt lat="45.98898" lon="4.81463">
        <ele>231</ele>
        <time>2012-04-09T09:26:42Z</time>
      </trkpt>
      <trkpt lat="45.98916" lon="4.81522">
        <ele>233</ele>
        <time>2012-04-09T09:26:52Z</time>
      </trkpt>
      <trkpt lat="45.98921" lon="4.81555">
        <ele>234</ele>
        <time>2012-04-09T09:27:02Z</time>
      </trkpt>
      <trkpt lat="45.98933" lon="4.81595">
        <ele>234</ele>
        <time>2012-04-09T09:27:13Z</time>
      </trkpt>
      <trkpt lat="45.98956" lon="4.81619">
        <ele>234</ele>
        <time>2012-04-09T09:27:23Z</time>
      </trkpt>
      <trkpt lat="45.98988" lon="4.81649">
        <ele>234</ele>
        <time>2012-04-09T09:27:34Z</time>
      </trkpt>
      <trkpt lat="45.98999" lon="4.81703">
        <ele>234</ele>
        <time>2012-04-09T09:27:44Z</time>
      </trkpt>
      <trkpt lat="45.99015" lon="4.81755">
        <ele>234</ele>
        <time>2012-04-09T09:27:54Z</time>
      </trkpt>
      <trkpt lat="45.99042" lon="4.81779">
        <ele>234</ele>
        <time>2012-04-09T09:28:04Z</time>
      </trkpt>
      <trkpt lat="45.99069" lon="4.81797">
        <ele>234</ele>
        <time>2012-04-09T09:28:14Z</time>
      </trkpt>
      <trkpt lat="45.99093" lon="4.81819">
        <ele>234</ele>
        <time>2012-04-09T09:28:25Z</time>
      </trkpt>
      <trkpt lat="45.99106" lon="4.81839">
        <ele>234</ele>
        <time>2012-04-09T09:28:35Z</time>
      </trkpt>
      <trkpt lat="45.99117" lon="4.81852">
        <ele>234</ele>
        <time>2012-04-09T09:28:45Z</time>
      </trkpt>
      <trkpt lat="45.99135" lon="4.81853">
        <ele>234</ele>
        <time>2012-04-09T09:28:56Z</time>
      </trkpt>
      <trkpt lat="45.99151" lon="4.81862">
        <ele>234</ele>
        <time>2012-04-09T09:29:08Z</time>
      </trkpt>
      <trkpt lat="45.99162" lon="4.81875">
        <ele>235</ele>
        <time>2012-04-09T09:29:19Z</time>
      </trkpt>
      <trkpt lat="45.99176" lon="4.81894">
        <ele>243</ele>
        <time>2012-04-09T09:29:33Z</time>
      </trkpt>
      <trkpt lat="45.99184" lon="4.819">
        <ele>245</ele>
        <time>2012-04-09T09:29:44Z</time>
      </trkpt>
      <trkpt lat="45.99188" lon="4.81905">
        <ele>246</ele>
        <time>2012-04-09T09:29:57Z</time>
      </trkpt>
      <trkpt lat="45.9919" lon="4.81905">
        <ele>245</ele>
        <time>2012-04-09T09:30:14Z</time>
      </trkpt>
      <trkpt lat="45.9919" lon="4.81906">
        <ele>243</ele>
        <time>2012-04-09T09:30:15Z</time>
      </trkpt>
      <trkpt lat="45.99187" lon="4.81908">
        <ele>245</ele>
        <time>2012-04-09T09:30:27Z</time>
      </trkpt>
      <trkpt lat="45.99187" lon="4.81907">
        <ele>247</ele>
        <time>2012-04-09T09:30:27Z</time>
      </trkpt>
      <trkpt lat="45.99185" lon="4.8191">
        <ele>247</ele>
        <time>2012-04-09T09:30:37Z</time>
      </trkpt>
      <trkpt lat="45.99192" lon="4.81904">
        <ele>246</ele>
        <time>2012-04-09T09:30:48Z</time>
      </trkpt>
      <trkpt lat="45.99194" lon="4.81901">
        <ele>244</ele>
        <time>2012-04-09T09:31:01Z</time>
      </trkpt>
      <trkpt lat="45.99192" lon="4.81902">
        <ele>241</ele>
        <time>2012-04-09T09:31:12Z</time>
      </trkpt>
      <trkpt lat="45.99194" lon="4.81905">
        <ele>242</ele>
        <time>2012-04-09T09:31:35Z</time>
      </trkpt>
      <trkpt lat="45.99204" lon="4.81912">
        <ele>243</ele>
        <time>2012-04-09T09:31:45Z</time>
      </trkpt>
      <trkpt lat="45.99217" lon="4.81895">
        <ele>246</ele>
        <time>2012-04-09T09:31:55Z</time>
      </trkpt>
      <trkpt lat="45.99231" lon="4.8188">
        <ele>248</ele>
        <time>2012-04-09T09:32:06Z</time>
      </trkpt>
      <trkpt lat="45.99245" lon="4.81893">
        <ele>249</ele>
        <time>2012-04-09T09:32:16Z</time>
      </trkpt>
      <trkpt lat="45.99262" lon="4.81903">
        <ele>250</ele>
        <time>2012-04-09T09:32:26Z</time>
      </trkpt>
      <trkpt lat="45.99289" lon="4.81899">
        <ele>251</ele>
        <time>2012-04-09T09:32:36Z</time>
      </trkpt>
      <trkpt lat="45.99319" lon="4.81895">
        <ele>251</ele>
        <time>2012-04-09T09:32:46Z</time>
      </trkpt>
      <trkpt lat="45.99346" lon="4.81922">
        <ele>251</ele>
        <time>2012-04-09T09:32:57Z</time>
      </trkpt>
      <trkpt lat="45.99357" lon="4.8193">
        <ele>251</ele>
        <time>2012-04-09T09:33:07Z</time>
      </trkpt>
      <trkpt lat="45.99364" lon="4.81902">
        <ele>251</ele>
        <time>2012-04-09T09:33:17Z</time>
      </trkpt>
      <trkpt lat="45.99369" lon="4.81872">
        <ele>252</ele>
        <time>2012-04-09T09:33:27Z</time>
      </trkpt>
      <trkpt lat="45.99375" lon="4.81863">
        <ele>252</ele>
        <time>2012-04-09T09:33:37Z</time>
      </trkpt>
      <trkpt lat="45.99364" lon="4.81838">
        <ele>254</ele>
        <time>2012-04-09T09:33:48Z</time>
      </trkpt>
      <trkpt lat="45.99354" lon="4.81815">
        <ele>257</ele>
        <time>2012-04-09T09:33:58Z</time>
      </trkpt>
      <trkpt lat="45.99358" lon="4.81788">
        <ele>258</ele>
        <time>2012-04-09T09:34:09Z</time>
      </trkpt>
      <trkpt lat="45.99374" lon="4.81772">
        <ele>259</ele>
        <time>2012-04-09T09:34:19Z</time>
      </trkpt>
      <trkpt lat="45.994" lon="4.81776">
        <ele>260</ele>
        <time>2012-04-09T09:34:29Z</time>
      </trkpt>
      <trkpt lat="45.99424" lon="4.81784">
        <ele>262</ele>
        <time>2012-04-09T09:34:39Z</time>
      </trkpt>
      <trkpt lat="45.99447" lon="4.81787">
        <ele>262</ele>
        <time>2012-04-09T09:34:49Z</time>
      </trkpt>
      <trkpt lat="45.99467" lon="4.81794">
        <ele>264</ele>
        <time>2012-04-09T09:34:59Z</time>
      </trkpt>
      <trkpt lat="45.99482" lon="4.81786">
        <ele>264</ele>
        <time>2012-04-09T09:35:09Z</time>
      </trkpt>
      <trkpt lat="45.99481" lon="4.81749">
        <ele>264</ele>
        <time>2012-04-09T09:35:20Z</time>
      </trkpt>
      <trkpt lat="45.99479" lon="4.81714">
        <ele>264</ele>
        <time>2012-04-09T09:35:30Z</time>
      </trkpt>
      <trkpt lat="45.99487" lon="4.81661">
        <ele>257</ele>
        <time>2012-04-09T09:35:40Z</time>
      </trkpt>
      <trkpt lat="45.9952" lon="4.81586">
        <ele>251</ele>
        <time>2012-04-09T09:35:50Z</time>
      </trkpt>
      <trkpt lat="45.99566" lon="4.81507">
        <ele>250</ele>
        <time>2012-04-09T09:36:00Z</time>
      </trkpt>
      <trkpt lat="45.99608" lon="4.81426">
        <ele>248</ele>
        <time>2012-04-09T09:36:10Z</time>
      </trkpt>
      <trkpt lat="45.99661" lon="4.81369">
        <ele>247</ele>
        <time>2012-04-09T09:36:20Z</time>
      </trkpt>
      <trkpt lat="45.99708" lon="4.8132">
        <ele>247</ele>
        <time>2012-04-09T09:36:30Z</time>
      </trkpt>
      <trkpt lat="45.99749" lon="4.81254">
        <ele>247</ele>
        <time>2012-04-09T09:36:41Z</time>
      </trkpt>
      <trkpt lat="45.99771" lon="4.81192">
        <ele>247</ele>
        <time>2012-04-09T09:36:51Z</time>
      </trkpt>
      <trkpt lat="45.99796" lon="4.81129">
        <ele>247</ele>
        <time>2012-04-09T09:37:02Z</time>
      </trkpt>
      <trkpt lat="45.99818" lon="4.81075">
        <ele>247</ele>
        <time>2012-04-09T09:37:12Z</time>
      </trkpt>
      <trkpt lat="45.99839" lon="4.81023">
        <ele>247</ele>
        <time>2012-04-09T09:37:23Z</time>
      </trkpt>
      <trkpt lat="45.99855" lon="4.80978">
        <ele>247</ele>
        <time>2012-04-09T09:37:33Z</time>
      </trkpt>
      <trkpt lat="45.99875" lon="4.80925">
        <ele>247</ele>
        <time>2012-04-09T09:37:43Z</time>
      </trkpt>
      <trkpt lat="45.99895" lon="4.80868">
        <ele>246</ele>
        <time>2012-04-09T09:37:53Z</time>
      </trkpt>
      <trkpt lat="45.99915" lon="4.8081">
        <ele>246</ele>
        <time>2012-04-09T09:38:03Z</time>
      </trkpt>
      <trkpt lat="45.99938" lon="4.8075">
        <ele>246</ele>
        <time>2012-04-09T09:38:14Z</time>
      </trkpt>
      <trkpt lat="45.99958" lon="4.80698">
        <ele>246</ele>
        <time>2012-04-09T09:38:24Z</time>
      </trkpt>
      <trkpt lat="45.99976" lon="4.80647">
        <ele>246</ele>
        <time>2012-04-09T09:38:34Z</time>
      </trkpt>
      <trkpt lat="45.99994" lon="4.80601">
        <ele>246</ele>
        <time>2012-04-09T09:38:44Z</time>
      </trkpt>
      <trkpt lat="46.00012" lon="4.80551">
        <ele>246</ele>
        <time>2012-04-09T09:38:54Z</time>
      </trkpt>
      <trkpt lat="46.00033" lon="4.80495">
        <ele>246</ele>
        <time>2012-04-09T09:39:04Z</time>
      </trkpt>
      <trkpt lat="46.00055" lon="4.80436">
        <ele>248</ele>
        <time>2012-04-09T09:39:14Z</time>
      </trkpt>
      <trkpt lat="46.0007" lon="4.8038">
        <ele>251</ele>
        <time>2012-04-09T09:39:24Z</time>
      </trkpt>
      <trkpt lat="46.00082" lon="4.80325">
        <ele>255</ele>
        <time>2012-04-09T09:39:34Z</time>
      </trkpt>
      <trkpt lat="46.00091" lon="4.80277">
        <ele>257</ele>
        <time>2012-04-09T09:39:44Z</time>
      </trkpt>
      <trkpt lat="46.001" lon="4.80234">
        <ele>258</ele>
        <time>2012-04-09T09:39:54Z</time>
      </trkpt>
      <trkpt lat="46.00109" lon="4.80191">
        <ele>258</ele>
        <time>2012-04-09T09:40:04Z</time>
      </trkpt>
      <trkpt lat="46.00117" lon="4.80147">
        <ele>258</ele>
        <time>2012-04-09T09:40:14Z</time>
      </trkpt>
      <trkpt lat="46.00125" lon="4.80106">
        <ele>258</ele>
        <time>2012-04-09T09:40:24Z</time>
      </trkpt>
      <trkpt lat="46.00133" lon="4.80068">
        <ele>259</ele>
        <time>2012-04-09T09:40:34Z</time>
      </trkpt>
      <trkpt lat="46.00141" lon="4.80027">
        <ele>259</ele>
        <time>2012-04-09T09:40:44Z</time>
      </trkpt>
      <trkpt lat="46.00149" lon="4.79985">
        <ele>259</ele>
        <time>2012-04-09T09:40:54Z</time>
      </trkpt>
      <trkpt lat="46.00158" lon="4.79942">
        <ele>259</ele>
        <time>2012-04-09T09:41:05Z</time>
      </trkpt>
      <trkpt lat="46.00166" lon="4.79904">
        <ele>259</ele>
        <time>2012-04-09T09:41:15Z</time>
      </trkpt>
      <trkpt lat="46.00148" lon="4.79878">
        <ele>259</ele>
        <time>2012-04-09T09:41:25Z</time>
      </trkpt>
      <trkpt lat="46.00122" lon="4.79848">
        <ele>259</ele>
        <time>2012-04-09T09:41:35Z</time>
      </trkpt>
      <trkpt lat="46.00096" lon="4.79808">
        <ele>259</ele>
        <time>2012-04-09T09:41:45Z</time>
      </trkpt>
      <trkpt lat="46.0007" lon="4.79771">
        <ele>259</ele>
        <time>2012-04-09T09:41:55Z</time>
      </trkpt>
      <trkpt lat="46.00048" lon="4.79725">
        <ele>257</ele>
        <time>2012-04-09T09:42:05Z</time>
      </trkpt>
      <trkpt lat="46.00024" lon="4.79676">
        <ele>257</ele>
        <time>2012-04-09T09:42:15Z</time>
      </trkpt>
      <trkpt lat="45.99993" lon="4.79628">
        <ele>255</ele>
        <time>2012-04-09T09:42:25Z</time>
      </trkpt>
      <trkpt lat="45.99961" lon="4.7958">
        <ele>254</ele>
        <time>2012-04-09T09:42:35Z</time>
      </trkpt>
      <trkpt lat="45.99928" lon="4.79533">
        <ele>253</ele>
        <time>2012-04-09T09:42:45Z</time>
      </trkpt>
      <trkpt lat="45.99897" lon="4.79486">
        <ele>252</ele>
        <time>2012-04-09T09:42:55Z</time>
      </trkpt>
      <trkpt lat="45.99865" lon="4.79437">
        <ele>250</ele>
        <time>2012-04-09T09:43:05Z</time>
      </trkpt>
      <trkpt lat="45.99861" lon="4.794">
        <ele>249</ele>
        <time>2012-04-09T09:43:15Z</time>
      </trkpt>
      <trkpt lat="45.99891" lon="4.79396">
        <ele>249</ele>
        <time>2012-04-09T09:43:25Z</time>
      </trkpt>
      <trkpt lat="45.99924" lon="4.79389">
        <ele>249</ele>
        <time>2012-04-09T09:43:35Z</time>
      </trkpt>
      <trkpt lat="45.99958" lon="4.79382">
        <ele>249</ele>
        <time>2012-04-09T09:43:45Z</time>
      </trkpt>
      <trkpt lat="45.99994" lon="4.79374">
        <ele>249</ele>
        <time>2012-04-09T09:43:55Z</time>
      </trkpt>
      <trkpt lat="46.00034" lon="4.79365">
        <ele>249</ele>
        <time>2012-04-09T09:44:06Z</time>
      </trkpt>
      <trkpt lat="46.00071" lon="4.79357">
        <ele>249</ele>
        <time>2012-04-09T09:44:16Z</time>
      </trkpt>
      <trkpt lat="46.00108" lon="4.79349">
        <ele>249</ele>
        <time>2012-04-09T09:44:26Z</time>
      </trkpt>
      <trkpt lat="46.00143" lon="4.7933">
        <ele>249</ele>
        <time>2012-04-09T09:44:36Z</time>
      </trkpt>
      <trkpt lat="46.00178" lon="4.79298">
        <ele>249</ele>
        <time>2012-04-09T09:44:47Z</time>
      </trkpt>
      <trkpt lat="46.00215" lon="4.79267">
        <ele>249</ele>
        <time>2012-04-09T09:44:57Z</time>
      </trkpt>
      <trkpt lat="46.0025" lon="4.79237">
        <ele>249</ele>
        <time>2012-04-09T09:45:07Z</time>
      </trkpt>
      <trkpt lat="46.00286" lon="4.79207">
        <ele>249</ele>
        <time>2012-04-09T09:45:17Z</time>
      </trkpt>
      <trkpt lat="46.0032" lon="4.79177">
        <ele>249</ele>
        <time>2012-04-09T09:45:27Z</time>
      </trkpt>
      <trkpt lat="46.00359" lon="4.79147">
        <ele>249</ele>
        <time>2012-04-09T09:45:37Z</time>
      </trkpt>
      <trkpt lat="46.00399" lon="4.7912">
        <ele>249</ele>
        <time>2012-04-09T09:45:47Z</time>
      </trkpt>
      <trkpt lat="46.00443" lon="4.79093">
        <ele>248</ele>
        <time>2012-04-09T09:45:57Z</time>
      </trkpt>
      <trkpt lat="46.00475" lon="4.79069">
        <ele>248</ele>
        <time>2012-04-09T09:46:07Z</time>
      </trkpt>
      <trkpt lat="46.0045" lon="4.79036">
        <ele>248</ele>
        <time>2012-04-09T09:46:17Z</time>
      </trkpt>
      <trkpt lat="46.0042" lon="4.78998">
        <ele>248</ele>
        <time>2012-04-09T09:46:27Z</time>
      </trkpt>
      <trkpt lat="46.0039" lon="4.78957">
        <ele>246</ele>
        <time>2012-04-09T09:46:37Z</time>
      </trkpt>
      <trkpt lat="46.00368" lon="4.78902">
        <ele>245</ele>
        <time>2012-04-09T09:46:47Z</time>
      </trkpt>
      <trkpt lat="46.00365" lon="4.78848">
        <ele>245</ele>
        <time>2012-04-09T09:46:57Z</time>
      </trkpt>
      <trkpt lat="46.00363" lon="4.78796">
        <ele>245</ele>
        <time>2012-04-09T09:47:07Z</time>
      </trkpt>
      <trkpt lat="46.00361" lon="4.78744">
        <ele>245</ele>
        <time>2012-04-09T09:47:17Z</time>
      </trkpt>
      <trkpt lat="46.00358" lon="4.78688">
        <ele>247</ele>
        <time>2012-04-09T09:47:27Z</time>
      </trkpt>
      <trkpt lat="46.00356" lon="4.78629">
        <ele>248</ele>
        <time>2012-04-09T09:47:37Z</time>
      </trkpt>
      <trkpt lat="46.00354" lon="4.78569">
        <ele>248</ele>
        <time>2012-04-09T09:47:47Z</time>
      </trkpt>
      <trkpt lat="46.00351" lon="4.78509">
        <ele>248</ele>
        <time>2012-04-09T09:47:57Z</time>
      </trkpt>
      <trkpt lat="46.00327" lon="4.78457">
        <ele>248</ele>
        <time>2012-04-09T09:48:07Z</time>
      </trkpt>
      <trkpt lat="46.003" lon="4.78409">
        <ele>247</ele>
        <time>2012-04-09T09:48:17Z</time>
      </trkpt>
      <trkpt lat="46.00274" lon="4.78362">
        <ele>246</ele>
        <time>2012-04-09T09:48:27Z</time>
      </trkpt>
      <trkpt lat="46.00247" lon="4.78316">
        <ele>245</ele>
        <time>2012-04-09T09:48:37Z</time>
      </trkpt>
      <trkpt lat="46.00231" lon="4.78286">
        <ele>244</ele>
        <time>2012-04-09T09:48:47Z</time>
      </trkpt>
      <trkpt lat="46.00213" lon="4.78254">
        <ele>244</ele>
        <time>2012-04-09T09:48:57Z</time>
      </trkpt>
      <trkpt lat="46.00191" lon="4.78215">
        <ele>244</ele>
        <time>2012-04-09T09:49:07Z</time>
      </trkpt>
      <trkpt lat="46.0017" lon="4.78173">
        <ele>244</ele>
        <time>2012-04-09T09:49:17Z</time>
      </trkpt>
      <trkpt lat="46.00148" lon="4.78133">
        <ele>244</ele>
        <time>2012-04-09T09:49:27Z</time>
      </trkpt>
      <trkpt lat="46.00124" lon="4.78091">
        <ele>244</ele>
        <time>2012-04-09T09:49:37Z</time>
      </trkpt>
      <trkpt lat="46.00099" lon="4.78045">
        <ele>244</ele>
        <time>2012-04-09T09:49:47Z</time>
      </trkpt>
      <trkpt lat="46.00074" lon="4.77997">
        <ele>244</ele>
        <time>2012-04-09T09:49:57Z</time>
      </trkpt>
      <trkpt lat="46.00054" lon="4.77941">
        <ele>244</ele>
        <time>2012-04-09T09:50:07Z</time>
      </trkpt>
      <trkpt lat="46.00039" lon="4.77883">
        <ele>244</ele>
        <time>2012-04-09T09:50:17Z</time>
      </trkpt>
      <trkpt lat="46.00021" lon="4.77828">
        <ele>244</ele>
        <time>2012-04-09T09:50:27Z</time>
      </trkpt>
      <trkpt lat="45.99989" lon="4.7779">
        <ele>244</ele>
        <time>2012-04-09T09:50:37Z</time>
      </trkpt>
      <trkpt lat="45.99956" lon="4.77758">
        <ele>244</ele>
        <time>2012-04-09T09:50:47Z</time>
      </trkpt>
      <trkpt lat="45.99931" lon="4.7771">
        <ele>244</ele>
        <time>2012-04-09T09:50:57Z</time>
      </trkpt>
      <trkpt lat="45.9991" lon="4.7765">
        <ele>244</ele>
        <time>2012-04-09T09:51:07Z</time>
      </trkpt>
      <trkpt lat="45.99883" lon="4.77606">
        <ele>244</ele>
        <time>2012-04-09T09:51:17Z</time>
      </trkpt>
      <trkpt lat="45.99869" lon="4.77551">
        <ele>244</ele>
        <time>2012-04-09T09:51:27Z</time>
      </trkpt>
      <trkpt lat="45.99862" lon="4.77496">
        <ele>244</ele>
        <time>2012-04-09T09:51:37Z</time>
      </trkpt>
      <trkpt lat="45.99855" lon="4.77442">
        <ele>244</ele>
        <time>2012-04-09T09:51:47Z</time>
      </trkpt>
      <trkpt lat="45.9985" lon="4.77389">
        <ele>245</ele>
        <time>2012-04-09T09:51:57Z</time>
      </trkpt>
      <trkpt lat="45.99842" lon="4.77338">
        <ele>245</ele>
        <time>2012-04-09T09:52:07Z</time>
      </trkpt>
      <trkpt lat="45.99834" lon="4.77283">
        <ele>245</ele>
        <time>2012-04-09T09:52:17Z</time>
      </trkpt>
      <trkpt lat="45.99818" lon="4.77229">
        <ele>245</ele>
        <time>2012-04-09T09:52:27Z</time>
      </trkpt>
      <trkpt lat="45.998" lon="4.77178">
        <ele>245</ele>
        <time>2012-04-09T09:52:37Z</time>
      </trkpt>
      <trkpt lat="45.99781" lon="4.77126">
        <ele>245</ele>
        <time>2012-04-09T09:52:47Z</time>
      </trkpt>
      <trkpt lat="45.99764" lon="4.77075">
        <ele>245</ele>
        <time>2012-04-09T09:52:57Z</time>
      </trkpt>
      <trkpt lat="45.99751" lon="4.77023">
        <ele>245</ele>
        <time>2012-04-09T09:53:07Z</time>
      </trkpt>
      <trkpt lat="45.99739" lon="4.76966">
        <ele>245</ele>
        <time>2012-04-09T09:53:17Z</time>
      </trkpt>
      <trkpt lat="45.99726" lon="4.76908">
        <ele>243</ele>
        <time>2012-04-09T09:53:27Z</time>
      </trkpt>
      <trkpt lat="45.99712" lon="4.76848">
        <ele>243</ele>
        <time>2012-04-09T09:53:37Z</time>
      </trkpt>
      <trkpt lat="45.99686" lon="4.76808">
        <ele>242</ele>
        <time>2012-04-09T09:53:47Z</time>
      </trkpt>
      <trkpt lat="45.99637" lon="4.76812">
        <ele>242</ele>
        <time>2012-04-09T09:53:57Z</time>
      </trkpt>
      <trkpt lat="45.99616" lon="4.76778">
        <ele>242</ele>
        <time>2012-04-09T09:54:07Z</time>
      </trkpt>
      <trkpt lat="45.99626" lon="4.76728">
        <ele>242</ele>
        <time>2012-04-09T09:54:17Z</time>
      </trkpt>
      <trkpt lat="45.9965" lon="4.76688">
        <ele>242</ele>
        <time>2012-04-09T09:54:27Z</time>
      </trkpt>
      <trkpt lat="45.99687" lon="4.76676">
        <ele>242</ele>
        <time>2012-04-09T09:54:37Z</time>
      </trkpt>
      <trkpt lat="45.99719" lon="4.76676">
        <ele>242</ele>
        <time>2012-04-09T09:54:47Z</time>
      </trkpt>
      <trkpt lat="45.9975" lon="4.76674">
        <ele>242</ele>
        <time>2012-04-09T09:54:57Z</time>
      </trkpt>
      <trkpt lat="45.99762" lon="4.76624">
        <ele>242</ele>
        <time>2012-04-09T09:55:07Z</time>
      </trkpt>
      <trkpt lat="45.99774" lon="4.76559">
        <ele>242</ele>
        <time>2012-04-09T09:55:17Z</time>
      </trkpt>
      <trkpt lat="45.99804" lon="4.76501">
        <ele>242</ele>
        <time>2012-04-09T09:55:27Z</time>
      </trkpt>
      <trkpt lat="45.99837" lon="4.76439">
        <ele>242</ele>
        <time>2012-04-09T09:55:37Z</time>
      </trkpt>
      <trkpt lat="45.99869" lon="4.76369">
        <ele>241</ele>
        <time>2012-04-09T09:55:47Z</time>
      </trkpt>
      <trkpt lat="45.99893" lon="4.76313">
        <ele>240</ele>
        <time>2012-04-09T09:55:57Z</time>
      </trkpt>
      <trkpt lat="45.99925" lon="4.76323">
        <ele>240</ele>
        <time>2012-04-09T09:56:07Z</time>
      </trkpt>
      <trkpt lat="45.9996" lon="4.76352">
        <ele>240</ele>
        <time>2012-04-09T09:56:17Z</time>
      </trkpt>
      <trkpt lat="45.99992" lon="4.76382">
        <ele>240</ele>
        <time>2012-04-09T09:56:27Z</time>
      </trkpt>
      <trkpt lat="46.00026" lon="4.76411">
        <ele>240</ele>
        <time>2012-04-09T09:56:37Z</time>
      </trkpt>
      <trkpt lat="46.0006" lon="4.76438">
        <ele>240</ele>
        <time>2012-04-09T09:56:47Z</time>
      </trkpt>
      <trkpt lat="46.00098" lon="4.76463">
        <ele>240</ele>
        <time>2012-04-09T09:56:57Z</time>
      </trkpt>
      <trkpt lat="46.00134" lon="4.76474">
        <ele>240</ele>
        <time>2012-04-09T09:57:07Z</time>
      </trkpt>
      <trkpt lat="46.00146" lon="4.76503">
        <ele>240</ele>
        <time>2012-04-09T09:57:17Z</time>
      </trkpt>
      <trkpt lat="46.00137" lon="4.76546">
        <ele>243</ele>
        <time>2012-04-09T09:57:27Z</time>
      </trkpt>
      <trkpt lat="46.00143" lon="4.76566">
        <ele>243</ele>
        <time>2012-04-09T09:57:37Z</time>
      </trkpt>
      <trkpt lat="46.00157" lon="4.76537">
        <ele>243</ele>
        <time>2012-04-09T09:57:47Z</time>
      </trkpt>
      <trkpt lat="46.00171" lon="4.76498">
        <ele>243</ele>
        <time>2012-04-09T09:57:57Z</time>
      </trkpt>
      <trkpt lat="46.00187" lon="4.7645">
        <ele>243</ele>
        <time>2012-04-09T09:58:07Z</time>
      </trkpt>
      <trkpt lat="46.0022" lon="4.76411">
        <ele>242</ele>
        <time>2012-04-09T09:58:17Z</time>
      </trkpt>
      <trkpt lat="46.00261" lon="4.76387">
        <ele>240</ele>
        <time>2012-04-09T09:58:27Z</time>
      </trkpt>
      <trkpt lat="46.00301" lon="4.76366">
        <ele>236</ele>
        <time>2012-04-09T09:58:37Z</time>
      </trkpt>
      <trkpt lat="46.00337" lon="4.76348">
        <ele>234</ele>
        <time>2012-04-09T09:58:47Z</time>
      </trkpt>
      <trkpt lat="46.00378" lon="4.76328">
        <ele>234</ele>
        <time>2012-04-09T09:58:57Z</time>
      </trkpt>
      <trkpt lat="46.00426" lon="4.76308">
        <ele>234</ele>
        <time>2012-04-09T09:59:07Z</time>
      </trkpt>
      <trkpt lat="46.00477" lon="4.76284">
        <ele>234</ele>
        <time>2012-04-09T09:59:17Z</time>
      </trkpt>
      <trkpt lat="46.00522" lon="4.76267">
        <ele>234</ele>
        <time>2012-04-09T09:59:27Z</time>
      </trkpt>
      <trkpt lat="46.00564" lon="4.76254">
        <ele>234</ele>
        <time>2012-04-09T09:59:37Z</time>
      </trkpt>
      <trkpt lat="46.00599" lon="4.76227">
        <ele>234</ele>
        <time>2012-04-09T09:59:47Z</time>
      </trkpt>
      <trkpt lat="46.00623" lon="4.76208">
        <ele>234</ele>
        <time>2012-04-09T09:59:57Z</time>
      </trkpt>
      <trkpt lat="46.0063" lon="4.76177">
        <ele>234</ele>
        <time>2012-04-09T10:00:07Z</time>
      </trkpt>
      <trkpt lat="46.00664" lon="4.76131">
        <ele>234</ele>
        <time>2012-04-09T10:00:17Z</time>
      </trkpt>
      <trkpt lat="46.00742" lon="4.76112">
        <ele>230</ele>
        <time>2012-04-09T10:00:27Z</time>
      </trkpt>
      <trkpt lat="46.00836" lon="4.76104">
        <ele>224</ele>
        <time>2012-04-09T10:00:37Z</time>
      </trkpt>
      <trkpt lat="46.00932" lon="4.76082">
        <ele>218</ele>
        <time>2012-04-09T10:00:47Z</time>
      </trkpt>
      <trkpt lat="46.01025" lon="4.76068">
        <ele>216</ele>
        <time>2012-04-09T10:00:57Z</time>
      </trkpt>
      <trkpt lat="46.01116" lon="4.76052">
        <ele>215</ele>
        <time>2012-04-09T10:01:07Z</time>
      </trkpt>
      <trkpt lat="46.0119" lon="4.76045">
        <ele>215</ele>
        <time>2012-04-09T10:01:17Z</time>
      </trkpt>
      <trkpt lat="46.01273" lon="4.76059">
        <ele>212</ele>
        <time>2012-04-09T10:01:27Z</time>
      </trkpt>
      <trkpt lat="46.01346" lon="4.76043">
        <ele>211</ele>
        <time>2012-04-09T10:01:37Z</time>
      </trkpt>
      <trkpt lat="46.01405" lon="4.76012">
        <ele>208</ele>
        <time>2012-04-09T10:01:47Z</time>
      </trkpt>
      <trkpt lat="46.01393" lon="4.75937">
        <ele>205</ele>
        <time>2012-04-09T10:01:57Z</time>
      </trkpt>
      <trkpt lat="46.01372" lon="4.75874">
        <ele>205</ele>
        <time>2012-04-09T10:02:07Z</time>
      </trkpt>
      <trkpt lat="46.01364" lon="4.75787">
        <ele>205</ele>
        <time>2012-04-09T10:02:17Z</time>
      </trkpt>
      <trkpt lat="46.01377" lon="4.75665">
        <ele>203</ele>
        <time>2012-04-09T10:02:27Z</time>
      </trkpt>
      <trkpt lat="46.01426" lon="4.75595">
        <ele>193</ele>
        <time>2012-04-09T10:02:37Z</time>
      </trkpt>
      <trkpt lat="46.01478" lon="4.75607">
        <ele>188</ele>
        <time>2012-04-09T10:02:47Z</time>
      </trkpt>
      <trkpt lat="46.01504" lon="4.75645">
        <ele>188</ele>
        <time>2012-04-09T10:02:57Z</time>
      </trkpt>
      <trkpt lat="46.01506" lon="4.75675">
        <ele>188</ele>
        <time>2012-04-09T10:03:09Z</time>
      </trkpt>
      <trkpt lat="46.01501" lon="4.75676">
        <ele>189</ele>
        <time>2012-04-09T10:03:20Z</time>
      </trkpt>
      <trkpt lat="46.01498" lon="4.7568">
        <ele>190</ele>
        <time>2012-04-09T10:03:33Z</time>
      </trkpt>
      <trkpt lat="46.015" lon="4.7568">
        <ele>191</ele>
        <time>2012-04-09T10:03:43Z</time>
      </trkpt>
      <trkpt lat="46.01496" lon="4.75677">
        <ele>194</ele>
        <time>2012-04-09T10:03:50Z</time>
      </trkpt>
    </trkseg>
  </trk>
</gpx>